QTR216 DTTJ-VRMM
Flight info
| Callsign | QTR216 |
|---|---|
| Flight time | 8h 9m |
| Altitude | 35000 |
| Route | MITBA1A MITBA DCT TANLI A411 REXOS DCT SOLUN P310 RASNO M1 ARLOS UM1 KAVOS N159 SAFTA N134 TULEP N318 SITOD/N0487F370 N318 OVONA/N0498F350 N318 LABRI/N0494F370 N318 TOLDA P570 KITAL L894 DONSA/N0489F390 L894 ELBET ELBET1A |
| Aircraft | A35K/H-SDE2E3GHIJ3J4J5LM1ORWXY/LB1D1 |
Departure
| Time | 2026-04-11 09:43 |
|---|---|
| Airport | Djerba Zarzis International Airport (DTTJ) |
Arrival
| Time | 2026-04-11 17:52 |
|---|---|
| Airport | Velana International Airport (VRMM) |
| Time | Latitude | Longitude | Altitude | Speed | Heading |
|---|---|---|---|---|---|
| 2026-04-11 09:18 | 33.87293 | 10.77415 | 33 ft | 0 kts | 134° |
| 2026-04-11 09:32 | 33.87307 | 10.77398 | 32 ft | 4 kts | 136° |
| 2026-04-11 09:32 | 33.87326 | 10.77376 | 31 ft | 4 kts | 141° |
| 2026-04-11 09:32 | 33.87348 | 10.77359 | 30 ft | 4 kts | 160° |
| 2026-04-11 09:33 | 33.87374 | 10.77352 | 30 ft | 4 kts | 176° |
| 2026-04-11 09:33 | 33.87387 | 10.77351 | 29 ft | 0 kts | 178° |
| 2026-04-11 09:37 | 33.87384 | 10.77350 | 29 ft | 1 kts | 189° |
| 2026-04-11 09:38 | 33.87357 | 10.77335 | 30 ft | 8 kts | 209° |
| 2026-04-11 09:38 | 33.87337 | 10.77289 | 33 ft | 7 kts | 278° |
| 2026-04-11 09:38 | 33.87361 | 10.77186 | 32 ft | 18 kts | 278° |
| 2026-04-11 09:38 | 33.87361 | 10.76997 | 33 ft | 27 kts | 268° |
| 2026-04-11 09:39 | 33.87356 | 10.76747 | 28 ft | 33 kts | 269° |
| 2026-04-11 09:39 | 33.87347 | 10.76457 | 27 ft | 37 kts | 267° |
| 2026-04-11 09:39 | 33.87340 | 10.76168 | 22 ft | 28 kts | 269° |
| 2026-04-11 09:39 | 33.87377 | 10.76069 | 27 ft | 9 kts | 328° |
| 2026-04-11 09:40 | 33.87386 | 10.76064 | 27 ft | 0 kts | 337° |
| 2026-04-11 09:41 | 33.87420 | 10.76055 | 28 ft | 12 kts | 352° |
| 2026-04-11 09:41 | 33.87497 | 10.76110 | 28 ft | 14 kts | 68° |
| 2026-04-11 09:41 | 33.87503 | 10.76164 | 28 ft | 0 kts | 88° |
| 2026-04-11 09:42 | 33.87510 | 10.76421 | 25 ft | 71 kts | 88° |
| 2026-04-11 09:42 | 33.87531 | 10.77335 | 25 ft | 145 kts | 88° |
| 2026-04-11 09:42 | 33.87557 | 10.78250 | 102 ft | 180 kts | 88° |
| 2026-04-11 09:43 | 33.87990 | 10.81320 | 1566 ft | 191 kts | 89° |
| 2026-04-11 09:43 | 33.87552 | 10.82812 | 1760 ft | 198 kts | 131° |
| 2026-04-11 09:43 | 33.86431 | 10.83869 | 1954 ft | 214 kts | 144° |
| 2026-04-11 09:43 | 33.85224 | 10.85058 | 2259 ft | 229 kts | 135° |
| 2026-04-11 09:44 | 33.84096 | 10.86514 | 2547 ft | 247 kts | 129° |
| 2026-04-11 09:44 | 33.83029 | 10.88149 | 3042 ft | 255 kts | 127° |
| 2026-04-11 09:44 | 33.81972 | 10.89887 | 3628 ft | 259 kts | 126° |
| 2026-04-11 09:44 | 33.80934 | 10.91687 | 4195 ft | 264 kts | 125° |
| 2026-04-11 09:45 | 33.79902 | 10.93533 | 4762 ft | 268 kts | 125° |
| 2026-04-11 09:45 | 33.78856 | 10.95411 | 5319 ft | 272 kts | 126° |
| 2026-04-11 09:45 | 33.77795 | 10.97309 | 5895 ft | 275 kts | 124° |
| 2026-04-11 09:45 | 33.76730 | 10.99236 | 6472 ft | 278 kts | 124° |
| 2026-04-11 09:46 | 33.75655 | 11.01190 | 7028 ft | 282 kts | 124° |
| 2026-04-11 09:46 | 33.74560 | 11.03174 | 7553 ft | 287 kts | 124° |
| 2026-04-11 09:46 | 33.73444 | 11.05188 | 8080 ft | 292 kts | 124° |
| 2026-04-11 09:46 | 33.72317 | 11.07232 | 8594 ft | 296 kts | 123° |
| 2026-04-11 09:47 | 33.71170 | 11.09310 | 9116 ft | 300 kts | 123° |
| 2026-04-11 09:47 | 33.70003 | 11.11421 | 9633 ft | 305 kts | 123° |
| 2026-04-11 09:47 | 33.68821 | 11.13561 | 10149 ft | 310 kts | 122° |
| 2026-04-11 09:47 | 33.67606 | 11.15768 | 10394 ft | 324 kts | 122° |
| 2026-04-11 09:48 | 33.66337 | 11.18072 | 10623 ft | 338 kts | 122° |
| 2026-04-11 09:48 | 33.65011 | 11.20478 | 10855 ft | 352 kts | 122° |
| 2026-04-11 09:48 | 33.63664 | 11.22988 | 11048 ft | 365 kts | 121° |
| 2026-04-11 09:48 | 33.62285 | 11.25619 | 11264 ft | 378 kts | 121° |
| 2026-04-11 09:49 | 33.60869 | 11.28340 | 11472 ft | 389 kts | 121° |
| 2026-04-11 09:49 | 33.59413 | 11.31131 | 11673 ft | 400 kts | 121° |
| 2026-04-11 09:49 | 33.57923 | 11.33965 | 12062 ft | 404 kts | 122° |
| 2026-04-11 09:49 | 33.56411 | 11.36828 | 12456 ft | 408 kts | 121° |
| 2026-04-11 09:50 | 33.54884 | 11.39719 | 12876 ft | 412 kts | 121° |
| 2026-04-11 09:50 | 33.53344 | 11.42634 | 13305 ft | 415 kts | 121° |
| 2026-04-11 09:50 | 33.51810 | 11.45523 | 13727 ft | 418 kts | 121° |
| 2026-04-11 09:50 | 33.50265 | 11.48488 | 14095 ft | 420 kts | 118° |
| 2026-04-11 09:51 | 33.48960 | 11.51630 | 14485 ft | 422 kts | 113° |
| 2026-04-11 09:51 | 33.47791 | 11.54845 | 14876 ft | 424 kts | 111° |
| 2026-04-11 09:51 | 33.46671 | 11.58134 | 15274 ft | 426 kts | 111° |
| 2026-04-11 09:51 | 33.45584 | 11.61440 | 15671 ft | 428 kts | 110° |
| 2026-04-11 09:52 | 33.44501 | 11.64776 | 16052 ft | 431 kts | 110° |
| 2026-04-11 09:52 | 33.43412 | 11.68126 | 16458 ft | 433 kts | 111° |
| 2026-04-11 09:52 | 33.42311 | 11.71492 | 16812 ft | 436 kts | 111° |
| 2026-04-11 09:52 | 33.41197 | 11.74877 | 17184 ft | 439 kts | 111° |
| 2026-04-11 09:53 | 33.40069 | 11.78287 | 17565 ft | 441 kts | 111° |
| 2026-04-11 09:53 | 33.38933 | 11.81708 | 17939 ft | 443 kts | 111° |
| 2026-04-11 09:53 | 33.37794 | 11.85139 | 18326 ft | 445 kts | 111° |
| 2026-04-11 09:53 | 33.36663 | 11.88541 | 18658 ft | 447 kts | 112° |
| 2026-04-11 09:54 | 33.35494 | 11.92057 | 18993 ft | 449 kts | 111° |
| 2026-04-11 09:54 | 33.34358 | 11.95487 | 19326 ft | 450 kts | 111° |
| 2026-04-11 09:54 | 33.33199 | 11.98981 | 19658 ft | 452 kts | 111° |
| 2026-04-11 09:54 | 33.32050 | 12.02483 | 19988 ft | 454 kts | 111° |
| 2026-04-11 09:55 | 33.30880 | 12.06000 | 20321 ft | 456 kts | 111° |
| 2026-04-11 09:55 | 33.29710 | 12.09538 | 20595 ft | 459 kts | 110° |
| 2026-04-11 09:55 | 33.28797 | 12.13197 | 20911 ft | 461 kts | 102° |
| 2026-04-11 09:55 | 33.28307 | 12.16981 | 21221 ft | 462 kts | 95° |
| 2026-04-11 09:56 | 33.28019 | 12.20816 | 21547 ft | 464 kts | 93° |
| 2026-04-11 09:56 | 33.27825 | 12.24676 | 21854 ft | 466 kts | 92° |
| 2026-04-11 09:56 | 33.27675 | 12.28551 | 22167 ft | 468 kts | 92° |
| 2026-04-11 09:56 | 33.27538 | 12.32449 | 22467 ft | 470 kts | 92° |
| 2026-04-11 09:57 | 33.27396 | 12.36365 | 22795 ft | 472 kts | 92° |
| 2026-04-11 09:57 | 33.27245 | 12.40288 | 23105 ft | 474 kts | 92° |
| 2026-04-11 09:57 | 33.27083 | 12.44237 | 23390 ft | 477 kts | 92° |
| 2026-04-11 09:57 | 33.26912 | 12.48214 | 23654 ft | 480 kts | 92° |
| 2026-04-11 09:58 | 33.26731 | 12.52208 | 23905 ft | 482 kts | 92° |
| 2026-04-11 09:58 | 33.26555 | 12.56214 | 24151 ft | 484 kts | 92° |
| 2026-04-11 09:58 | 33.26375 | 12.60238 | 24399 ft | 486 kts | 92° |
| 2026-04-11 09:58 | 33.26195 | 12.64223 | 24648 ft | 488 kts | 92° |
| 2026-04-11 09:59 | 33.26009 | 12.68278 | 24888 ft | 490 kts | 92° |
| 2026-04-11 09:59 | 33.25822 | 12.72357 | 25146 ft | 492 kts | 92° |
| 2026-04-11 09:59 | 33.25633 | 12.76441 | 25393 ft | 494 kts | 92° |
| 2026-04-11 09:59 | 33.25442 | 12.80541 | 25629 ft | 496 kts | 92° |
| 2026-04-11 10:00 | 33.25248 | 12.84670 | 25860 ft | 499 kts | 92° |
| 2026-04-11 10:00 | 33.25052 | 12.88815 | 26117 ft | 501 kts | 92° |
| 2026-04-11 10:00 | 33.24855 | 12.92972 | 26381 ft | 502 kts | 92° |
| 2026-04-11 10:00 | 33.24655 | 12.97148 | 26643 ft | 505 kts | 92° |
| 2026-04-11 10:01 | 33.24453 | 13.01349 | 26903 ft | 507 kts | 92° |
| 2026-04-11 10:01 | 33.24248 | 13.05562 | 27169 ft | 508 kts | 92° |
| 2026-04-11 10:01 | 33.24042 | 13.09784 | 27430 ft | 510 kts | 92° |
| 2026-04-11 10:01 | 33.23836 | 13.13977 | 27675 ft | 513 kts | 92° |
| 2026-04-11 10:02 | 33.23625 | 13.18232 | 27890 ft | 515 kts | 92° |
| 2026-04-11 10:02 | 33.23411 | 13.22518 | 28133 ft | 517 kts | 92° |
| 2026-04-11 10:02 | 33.23195 | 13.26819 | 28381 ft | 519 kts | 92° |
| 2026-04-11 10:02 | 33.22977 | 13.31123 | 28616 ft | 521 kts | 92° |
| 2026-04-11 10:03 | 33.22756 | 13.35458 | 28845 ft | 523 kts | 92° |
| 2026-04-11 10:03 | 33.22533 | 13.39802 | 29085 ft | 525 kts | 92° |
| 2026-04-11 10:03 | 33.22308 | 13.44161 | 29367 ft | 525 kts | 92° |
| 2026-04-11 10:03 | 33.22082 | 13.48514 | 29709 ft | 524 kts | 92° |
| 2026-04-11 10:04 | 33.21854 | 13.52865 | 30044 ft | 524 kts | 92° |
| 2026-04-11 10:04 | 33.21626 | 13.57204 | 30326 ft | 524 kts | 92° |
| 2026-04-11 10:04 | 33.21397 | 13.61539 | 30595 ft | 524 kts | 92° |
| 2026-04-11 10:04 | 33.21165 | 13.65898 | 30870 ft | 523 kts | 92° |
| 2026-04-11 10:05 | 33.20933 | 13.70236 | 31137 ft | 523 kts | 92° |
| 2026-04-11 10:05 | 33.20699 | 13.74572 | 31403 ft | 523 kts | 92° |
| 2026-04-11 10:05 | 33.20464 | 13.78900 | 31671 ft | 523 kts | 92° |
| 2026-04-11 10:05 | 33.20226 | 13.83239 | 31934 ft | 523 kts | 92° |
| 2026-04-11 10:06 | 33.19988 | 13.87565 | 32199 ft | 523 kts | 92° |
| 2026-04-11 10:06 | 33.19748 | 13.91887 | 32461 ft | 522 kts | 92° |
| 2026-04-11 10:06 | 33.19507 | 13.96216 | 32716 ft | 522 kts | 92° |
| 2026-04-11 10:06 | 33.19267 | 14.00492 | 32961 ft | 522 kts | 92° |
| 2026-04-11 10:07 | 33.19023 | 14.04811 | 33219 ft | 522 kts | 92° |
| 2026-04-11 10:07 | 33.18778 | 14.09129 | 33450 ft | 522 kts | 92° |
| 2026-04-11 10:07 | 33.18530 | 14.13458 | 33705 ft | 522 kts | 92° |
| 2026-04-11 10:07 | 33.18281 | 14.17785 | 33959 ft | 522 kts | 92° |
| 2026-04-11 10:08 | 33.18031 | 14.22104 | 34173 ft | 522 kts | 92° |
| 2026-04-11 10:08 | 33.17779 | 14.26430 | 34380 ft | 521 kts | 92° |
| 2026-04-11 10:08 | 33.17526 | 14.30749 | 34579 ft | 521 kts | 92° |
| 2026-04-11 10:08 | 33.17272 | 14.35061 | 34758 ft | 522 kts | 92° |
| 2026-04-11 10:09 | 33.17015 | 14.39387 | 34948 ft | 522 kts | 92° |
| 2026-04-11 10:09 | 33.16758 | 14.43708 | 35065 ft | 524 kts | 92° |
| 2026-04-11 10:09 | 33.16496 | 14.48072 | 35068 ft | 528 kts | 92° |
| 2026-04-11 10:10 | 33.15966 | 14.56824 | 35076 ft | 529 kts | 92° |
| 2026-04-11 10:10 | 33.15428 | 14.65578 | 35086 ft | 528 kts | 92° |
| 2026-04-11 10:11 | 33.14889 | 14.74268 | 35084 ft | 528 kts | 92° |
| 2026-04-11 10:11 | 33.14341 | 14.83011 | 35082 ft | 528 kts | 92° |
| 2026-04-11 10:12 | 33.13786 | 14.91754 | 35085 ft | 528 kts | 92° |
| 2026-04-11 10:12 | 33.13226 | 15.00485 | 35084 ft | 528 kts | 92° |
| 2026-04-11 10:13 | 33.12659 | 15.09228 | 35081 ft | 529 kts | 92° |
| 2026-04-11 10:13 | 33.12085 | 15.17988 | 35084 ft | 529 kts | 92° |
| 2026-04-11 10:14 | 33.11506 | 15.26735 | 35082 ft | 529 kts | 93° |
| 2026-04-11 10:14 | 33.10921 | 15.35470 | 35084 ft | 528 kts | 92° |
| 2026-04-11 10:15 | 33.10329 | 15.44203 | 35093 ft | 528 kts | 93° |
| 2026-04-11 10:15 | 33.09737 | 15.52874 | 35093 ft | 528 kts | 93° |
| 2026-04-11 10:16 | 33.09134 | 15.61601 | 35097 ft | 528 kts | 93° |
| 2026-04-11 10:16 | 33.08525 | 15.70322 | 35107 ft | 527 kts | 93° |
| 2026-04-11 10:17 | 33.07911 | 15.79041 | 35093 ft | 527 kts | 93° |
| 2026-04-11 10:17 | 33.07290 | 15.87756 | 35091 ft | 527 kts | 93° |
| 2026-04-11 10:18 | 33.06664 | 15.96465 | 35105 ft | 527 kts | 93° |
| 2026-04-11 10:18 | 33.06032 | 16.05175 | 35099 ft | 527 kts | 93° |
| 2026-04-11 10:19 | 33.05393 | 16.13883 | 35100 ft | 527 kts | 93° |
| 2026-04-11 10:19 | 33.04749 | 16.22595 | 35106 ft | 527 kts | 93° |
| 2026-04-11 10:20 | 33.04102 | 16.31247 | 35107 ft | 527 kts | 93° |
| 2026-04-11 10:20 | 33.03445 | 16.39963 | 35112 ft | 527 kts | 93° |
| 2026-04-11 10:21 | 33.02782 | 16.48667 | 35109 ft | 528 kts | 93° |
| 2026-04-11 10:21 | 33.02113 | 16.57380 | 35109 ft | 528 kts | 93° |
| 2026-04-11 10:22 | 33.01437 | 16.66091 | 35112 ft | 528 kts | 93° |
| 2026-04-11 10:22 | 33.00756 | 16.74799 | 35114 ft | 528 kts | 93° |
| 2026-04-11 10:23 | 33.00068 | 16.83513 | 35114 ft | 529 kts | 93° |
| 2026-04-11 10:23 | 32.99373 | 16.92242 | 35115 ft | 529 kts | 93° |
| 2026-04-11 10:24 | 32.99516 | 17.00937 | 35114 ft | 522 kts | 76° |
| 2026-04-11 10:24 | 33.01586 | 17.09156 | 35122 ft | 518 kts | 66° |
| 2026-04-11 10:25 | 33.04133 | 17.17190 | 35118 ft | 518 kts | 64° |
| 2026-04-11 10:25 | 33.06729 | 17.25205 | 35119 ft | 518 kts | 65° |
| 2026-04-11 10:26 | 33.09289 | 17.33229 | 35120 ft | 518 kts | 65° |
| 2026-04-11 10:26 | 33.11824 | 17.41273 | 35126 ft | 518 kts | 65° |
| 2026-04-11 10:27 | 33.14351 | 17.49332 | 35119 ft | 519 kts | 65° |
| 2026-04-11 10:27 | 33.16859 | 17.57348 | 35121 ft | 519 kts | 65° |
| 2026-04-11 10:28 | 33.18968 | 17.64104 | 35116 ft | 519 kts | 65° |
| 2026-04-11 10:28 | 33.21893 | 17.73493 | 35118 ft | 519 kts | 65° |
| 2026-04-11 10:29 | 33.24404 | 17.81582 | 35115 ft | 519 kts | 65° |
| 2026-04-11 10:29 | 33.26907 | 17.89667 | 35125 ft | 519 kts | 65° |
| 2026-04-11 10:30 | 33.28988 | 17.96404 | 35114 ft | 519 kts | 65° |
| 2026-04-11 10:30 | 33.31499 | 18.04558 | 35119 ft | 519 kts | 65° |
| 2026-04-11 10:31 | 33.33976 | 18.12619 | 35123 ft | 520 kts | 65° |
| 2026-04-11 10:31 | 33.36463 | 18.20734 | 35127 ft | 519 kts | 65° |
| 2026-04-11 10:32 | 33.38941 | 18.28842 | 35121 ft | 518 kts | 65° |
| 2026-04-11 10:32 | 33.41407 | 18.36931 | 35122 ft | 517 kts | 65° |
| 2026-04-11 10:33 | 33.43877 | 18.45025 | 35120 ft | 517 kts | 65° |
| 2026-04-11 10:33 | 33.46343 | 18.53111 | 35139 ft | 517 kts | 65° |
| 2026-04-11 10:34 | 33.48808 | 18.61213 | 35122 ft | 517 kts | 65° |
| 2026-04-11 10:34 | 33.51264 | 18.69316 | 35118 ft | 517 kts | 65° |
| 2026-04-11 10:35 | 33.53699 | 18.77376 | 35153 ft | 517 kts | 66° |
| 2026-04-11 10:35 | 33.56120 | 18.85481 | 35124 ft | 514 kts | 66° |
| 2026-04-11 10:36 | 33.58522 | 18.93551 | 35119 ft | 513 kts | 66° |
| 2026-04-11 10:36 | 33.60920 | 19.01618 | 35127 ft | 514 kts | 66° |
| 2026-04-11 10:37 | 33.63317 | 19.09696 | 35129 ft | 514 kts | 66° |
| 2026-04-11 10:37 | 33.65707 | 19.17774 | 35127 ft | 513 kts | 66° |
| 2026-04-11 10:38 | 33.68092 | 19.25859 | 35125 ft | 513 kts | 66° |
| 2026-04-11 10:38 | 33.71653 | 19.37969 | 35125 ft | 512 kts | 66° |
| 2026-04-11 10:39 | 33.74066 | 19.45995 | 35133 ft | 510 kts | 65° |
| 2026-04-11 10:39 | 33.76513 | 19.53937 | 35127 ft | 509 kts | 65° |
| 2026-04-11 10:40 | 33.78964 | 19.61924 | 35127 ft | 509 kts | 65° |
| 2026-04-11 10:40 | 33.81398 | 19.69917 | 35128 ft | 509 kts | 65° |
| 2026-04-11 10:41 | 33.83822 | 19.77917 | 35124 ft | 509 kts | 65° |
| 2026-04-11 10:41 | 33.86239 | 19.85916 | 35138 ft | 509 kts | 65° |
| 2026-04-11 10:42 | 33.88649 | 19.93915 | 35129 ft | 507 kts | 65° |
| 2026-04-11 10:42 | 33.91049 | 20.01899 | 35127 ft | 507 kts | 65° |
| 2026-04-11 10:43 | 33.94625 | 20.13834 | 35135 ft | 507 kts | 65° |
| 2026-04-11 10:44 | 33.97010 | 20.21821 | 35128 ft | 507 kts | 65° |
| 2026-04-11 10:44 | 33.99388 | 20.29808 | 35127 ft | 506 kts | 65° |
| 2026-04-11 10:45 | 34.01762 | 20.37803 | 35143 ft | 506 kts | 65° |
| 2026-04-11 10:45 | 34.04125 | 20.45787 | 35128 ft | 505 kts | 65° |
| 2026-04-11 10:46 | 34.06479 | 20.53758 | 35129 ft | 504 kts | 65° |
| 2026-04-11 10:46 | 34.08824 | 20.61720 | 35126 ft | 503 kts | 65° |
| 2026-04-11 10:47 | 34.11148 | 20.69631 | 35125 ft | 503 kts | 65° |
| 2026-04-11 10:47 | 34.13481 | 20.77594 | 35132 ft | 503 kts | 65° |
| 2026-04-11 10:48 | 34.15811 | 20.85573 | 35131 ft | 503 kts | 65° |
| 2026-04-11 10:48 | 34.18136 | 20.93554 | 35129 ft | 503 kts | 65° |
| 2026-04-11 10:49 | 34.20454 | 21.01532 | 35127 ft | 503 kts | 65° |
| 2026-04-11 10:49 | 34.22748 | 21.09451 | 35126 ft | 503 kts | 65° |
| 2026-04-11 10:50 | 34.25056 | 21.17442 | 35132 ft | 503 kts | 65° |
| 2026-04-11 10:50 | 34.27356 | 21.25427 | 35126 ft | 503 kts | 65° |
| 2026-04-11 10:51 | 34.29650 | 21.33414 | 35128 ft | 503 kts | 65° |
| 2026-04-11 10:51 | 34.31941 | 21.41411 | 35144 ft | 503 kts | 65° |
| 2026-04-11 10:52 | 34.33976 | 21.49532 | 35129 ft | 506 kts | 70° |
| 2026-04-11 10:52 | 34.35650 | 21.57811 | 35127 ft | 507 kts | 71° |
| 2026-04-11 10:53 | 34.37269 | 21.66122 | 35126 ft | 507 kts | 71° |
| 2026-04-11 10:53 | 34.38879 | 21.74432 | 35129 ft | 507 kts | 71° |
| 2026-04-11 10:54 | 34.40491 | 21.82746 | 35133 ft | 507 kts | 71° |
| 2026-04-11 10:54 | 34.42087 | 21.90989 | 35127 ft | 507 kts | 71° |
| 2026-04-11 10:55 | 34.43694 | 21.99322 | 35130 ft | 507 kts | 71° |
| 2026-04-11 10:55 | 34.45294 | 22.07648 | 35129 ft | 507 kts | 71° |
| 2026-04-11 10:56 | 34.46885 | 22.15962 | 35131 ft | 507 kts | 71° |
| 2026-04-11 10:56 | 34.48463 | 22.24242 | 35127 ft | 506 kts | 71° |
| 2026-04-11 10:57 | 34.50050 | 22.32601 | 35131 ft | 506 kts | 71° |
| 2026-04-11 10:57 | 34.51626 | 22.40931 | 35130 ft | 506 kts | 71° |
| 2026-04-11 10:58 | 34.53193 | 22.49253 | 35130 ft | 506 kts | 71° |
| 2026-04-11 10:58 | 34.54738 | 22.57490 | 35130 ft | 506 kts | 71° |
| 2026-04-11 10:59 | 34.56303 | 22.65863 | 35125 ft | 506 kts | 71° |
| 2026-04-11 10:59 | 34.57855 | 22.74203 | 35128 ft | 506 kts | 71° |
| 2026-04-11 11:00 | 34.59400 | 22.82539 | 35136 ft | 506 kts | 71° |
| 2026-04-11 11:00 | 34.60942 | 22.90888 | 35134 ft | 506 kts | 70° |
| 2026-04-11 11:01 | 34.62545 | 22.99208 | 35120 ft | 506 kts | 70° |
| 2026-04-11 11:01 | 34.63994 | 23.07595 | 35134 ft | 508 kts | 71° |
| 2026-04-11 11:02 | 34.65202 | 23.16067 | 35128 ft | 509 kts | 74° |
| 2026-04-11 11:02 | 34.66367 | 23.24540 | 35124 ft | 509 kts | 74° |
| 2026-04-11 11:03 | 34.67586 | 23.33013 | 35140 ft | 509 kts | 73° |
| 2026-04-11 11:03 | 34.68837 | 23.41478 | 35125 ft | 508 kts | 73° |
| 2026-04-11 11:04 | 34.70100 | 23.49920 | 35123 ft | 508 kts | 73° |
| 2026-04-11 11:04 | 34.71352 | 23.58307 | 35122 ft | 507 kts | 73° |
| 2026-04-11 11:05 | 34.72590 | 23.66737 | 35120 ft | 507 kts | 73° |
| 2026-04-11 11:05 | 34.73819 | 23.75193 | 35139 ft | 507 kts | 73° |
| 2026-04-11 11:06 | 34.75047 | 23.83652 | 35121 ft | 508 kts | 73° |
| 2026-04-11 11:06 | 34.76274 | 23.92111 | 35116 ft | 508 kts | 73° |
| 2026-04-11 11:07 | 34.77494 | 24.00568 | 35123 ft | 508 kts | 73° |
| 2026-04-11 11:07 | 34.78707 | 24.09023 | 35125 ft | 508 kts | 73° |
| 2026-04-11 11:08 | 34.79918 | 24.17502 | 35112 ft | 509 kts | 73° |
| 2026-04-11 11:08 | 34.81124 | 24.25989 | 35112 ft | 509 kts | 73° |
| 2026-04-11 11:09 | 34.82325 | 24.34486 | 35112 ft | 509 kts | 73° |
| 2026-04-11 11:09 | 34.83519 | 24.42982 | 35112 ft | 509 kts | 73° |
| 2026-04-11 11:10 | 34.84708 | 24.51486 | 35111 ft | 510 kts | 73° |
| 2026-04-11 11:10 | 34.85893 | 24.60000 | 35107 ft | 510 kts | 73° |
| 2026-04-11 11:11 | 34.87070 | 24.68506 | 35115 ft | 510 kts | 73° |
| 2026-04-11 11:11 | 34.88243 | 24.77035 | 35104 ft | 510 kts | 73° |
| 2026-04-11 11:12 | 34.89411 | 24.85566 | 35104 ft | 510 kts | 73° |
| 2026-04-11 11:12 | 34.90565 | 24.94042 | 35104 ft | 510 kts | 73° |
| 2026-04-11 11:13 | 34.91721 | 25.02576 | 35113 ft | 510 kts | 73° |
| 2026-04-11 11:13 | 34.92872 | 25.11119 | 35108 ft | 511 kts | 73° |
| 2026-04-11 11:14 | 34.94017 | 25.19671 | 35094 ft | 511 kts | 73° |
| 2026-04-11 11:14 | 34.95157 | 25.28229 | 35094 ft | 511 kts | 73° |
| 2026-04-11 11:15 | 34.96289 | 25.36774 | 35107 ft | 511 kts | 72° |
| 2026-04-11 11:15 | 34.97231 | 25.43917 | 35099 ft | 513 kts | 72° |
| 2026-04-11 11:16 | 34.98358 | 25.52511 | 35103 ft | 513 kts | 73° |
| 2026-04-11 11:16 | 34.99659 | 25.62503 | 35099 ft | 513 kts | 73° |
| 2026-04-11 11:17 | 35.00593 | 25.69711 | 35103 ft | 514 kts | 73° |
| 2026-04-11 11:17 | 35.01706 | 25.78340 | 35105 ft | 514 kts | 73° |
| 2026-04-11 11:18 | 35.02808 | 25.86956 | 35096 ft | 515 kts | 73° |
| 2026-04-11 11:18 | 35.03908 | 25.95588 | 35130 ft | 515 kts | 73° |
| 2026-04-11 11:19 | 35.05000 | 26.04185 | 35104 ft | 516 kts | 73° |
| 2026-04-11 11:19 | 35.06046 | 26.12867 | 35103 ft | 521 kts | 77° |
| 2026-04-11 11:20 | 35.05604 | 26.21819 | 35103 ft | 540 kts | 98° |
| 2026-04-11 11:20 | 35.03138 | 26.30573 | 35110 ft | 548 kts | 107° |
| 2026-04-11 11:21 | 35.00238 | 26.39200 | 35102 ft | 550 kts | 108° |
| 2026-04-11 11:21 | 34.97304 | 26.47807 | 35101 ft | 550 kts | 108° |
| 2026-04-11 11:22 | 34.94399 | 26.56446 | 35108 ft | 550 kts | 108° |
| 2026-04-11 11:22 | 34.91515 | 26.65084 | 35108 ft | 551 kts | 108° |
| 2026-04-11 11:23 | 34.88625 | 26.73727 | 35105 ft | 551 kts | 108° |
| 2026-04-11 11:23 | 34.85745 | 26.82311 | 35105 ft | 551 kts | 108° |
| 2026-04-11 11:24 | 34.82837 | 26.90948 | 35111 ft | 551 kts | 108° |
| 2026-04-11 11:24 | 34.79925 | 26.99573 | 35080 ft | 550 kts | 108° |
| 2026-04-11 11:25 | 34.77012 | 27.08176 | 35110 ft | 550 kts | 109° |
| 2026-04-11 11:25 | 34.74099 | 27.16756 | 35108 ft | 550 kts | 109° |
| 2026-04-11 11:26 | 34.71168 | 27.25368 | 35108 ft | 550 kts | 109° |
| 2026-04-11 11:26 | 34.68237 | 27.33953 | 35111 ft | 550 kts | 109° |
| 2026-04-11 11:27 | 34.65302 | 27.42529 | 35111 ft | 550 kts | 109° |
| 2026-04-11 11:27 | 34.62353 | 27.51118 | 35113 ft | 550 kts | 109° |
| 2026-04-11 11:28 | 34.59402 | 27.59692 | 35108 ft | 550 kts | 109° |
| 2026-04-11 11:28 | 34.56447 | 27.68253 | 35111 ft | 550 kts | 110° |
| 2026-04-11 11:29 | 34.52003 | 27.81098 | 35111 ft | 550 kts | 110° |
| 2026-04-11 11:29 | 34.49052 | 27.89587 | 35110 ft | 550 kts | 110° |
| 2026-04-11 11:30 | 34.46070 | 27.98131 | 35111 ft | 551 kts | 110° |
| 2026-04-11 11:30 | 34.43081 | 28.06677 | 35125 ft | 551 kts | 110° |
| 2026-04-11 11:31 | 34.40088 | 28.15216 | 35108 ft | 551 kts | 110° |
| 2026-04-11 11:31 | 34.37086 | 28.23758 | 35108 ft | 551 kts | 110° |
| 2026-04-11 11:32 | 34.34080 | 28.32289 | 35104 ft | 551 kts | 110° |
| 2026-04-11 11:32 | 34.31065 | 28.40821 | 35115 ft | 551 kts | 111° |
| 2026-04-11 11:33 | 34.28039 | 28.49362 | 35105 ft | 552 kts | 111° |
| 2026-04-11 11:33 | 34.25028 | 28.57837 | 35109 ft | 552 kts | 111° |
| 2026-04-11 11:34 | 34.21975 | 28.66408 | 35121 ft | 552 kts | 111° |
| 2026-04-11 11:34 | 34.18949 | 28.74885 | 35112 ft | 552 kts | 111° |
| 2026-04-11 11:35 | 34.15898 | 28.83404 | 35112 ft | 552 kts | 111° |
| 2026-04-11 11:35 | 34.12842 | 28.91918 | 35111 ft | 553 kts | 111° |
| 2026-04-11 11:36 | 34.09783 | 29.00416 | 35099 ft | 553 kts | 111° |
| 2026-04-11 11:36 | 34.06714 | 29.08918 | 35115 ft | 553 kts | 111° |
| 2026-04-11 11:37 | 34.03634 | 29.17428 | 35102 ft | 553 kts | 111° |
| 2026-04-11 11:37 | 34.00552 | 29.25925 | 35088 ft | 553 kts | 112° |
| 2026-04-11 11:38 | 33.97463 | 29.34416 | 35108 ft | 553 kts | 112° |
| 2026-04-11 11:38 | 33.94365 | 29.42908 | 35097 ft | 553 kts | 112° |
| 2026-04-11 11:39 | 33.91259 | 29.51402 | 35105 ft | 553 kts | 112° |
| 2026-04-11 11:39 | 33.88151 | 29.59880 | 35116 ft | 553 kts | 112° |
| 2026-04-11 11:40 | 33.85037 | 29.68351 | 35093 ft | 553 kts | 112° |
| 2026-04-11 11:40 | 33.81919 | 29.76812 | 35093 ft | 553 kts | 112° |
| 2026-04-11 11:41 | 33.79078 | 29.84504 | 35105 ft | 554 kts | 112° |
| 2026-04-11 11:41 | 33.75947 | 29.92957 | 35105 ft | 553 kts | 112° |
| 2026-04-11 11:42 | 33.73790 | 30.01734 | 35104 ft | 545 kts | 93° |
| 2026-04-11 11:42 | 33.73715 | 30.10765 | 35101 ft | 539 kts | 83° |
| 2026-04-11 11:43 | 33.74110 | 30.19741 | 35101 ft | 538 kts | 82° |
| 2026-04-11 11:43 | 33.74549 | 30.28733 | 35112 ft | 538 kts | 82° |
| 2026-04-11 11:44 | 33.74947 | 30.37719 | 35102 ft | 539 kts | 82° |
| 2026-04-11 11:44 | 33.75317 | 30.46728 | 35102 ft | 539 kts | 83° |
| 2026-04-11 11:45 | 33.75672 | 30.55674 | 35099 ft | 540 kts | 83° |
| 2026-04-11 11:45 | 33.76023 | 30.64688 | 35101 ft | 540 kts | 83° |
| 2026-04-11 11:46 | 33.76370 | 30.73695 | 35099 ft | 540 kts | 83° |
| 2026-04-11 11:46 | 33.76710 | 30.82703 | 35102 ft | 540 kts | 83° |
| 2026-04-11 11:47 | 33.77044 | 30.91719 | 35097 ft | 540 kts | 83° |
| 2026-04-11 11:47 | 33.77371 | 31.00735 | 35104 ft | 540 kts | 83° |
| 2026-04-11 11:48 | 33.77693 | 31.09771 | 35094 ft | 541 kts | 83° |
| 2026-04-11 11:48 | 33.78007 | 31.18817 | 35092 ft | 542 kts | 83° |
| 2026-04-11 11:49 | 33.78315 | 31.27864 | 35100 ft | 542 kts | 83° |
| 2026-04-11 11:49 | 33.78618 | 31.36930 | 35095 ft | 543 kts | 83° |
| 2026-04-11 11:50 | 33.78915 | 31.46005 | 35088 ft | 543 kts | 83° |
| 2026-04-11 11:50 | 33.79202 | 31.55026 | 35088 ft | 543 kts | 83° |
| 2026-04-11 11:51 | 33.78859 | 31.64120 | 35090 ft | 550 kts | 99° |
| 2026-04-11 11:51 | 33.77798 | 31.68540 | 35089 ft | 552 kts | 111° |
| 2026-04-11 11:51 | 33.76075 | 31.72668 | 35093 ft | 553 kts | 122° |
| 2026-04-11 11:52 | 33.71837 | 31.80392 | 35085 ft | 554 kts | 126° |
| 2026-04-11 11:52 | 33.67413 | 31.87951 | 35086 ft | 553 kts | 126° |
| 2026-04-11 11:53 | 33.62996 | 31.95515 | 35089 ft | 553 kts | 126° |
| 2026-04-11 11:53 | 33.58611 | 32.03096 | 35089 ft | 553 kts | 125° |
| 2026-04-11 11:54 | 33.54239 | 32.10674 | 35090 ft | 553 kts | 125° |
| 2026-04-11 11:54 | 33.49861 | 32.18249 | 35089 ft | 552 kts | 126° |
| 2026-04-11 11:55 | 33.45486 | 32.25799 | 35086 ft | 552 kts | 126° |
| 2026-04-11 11:55 | 33.41126 | 32.33306 | 35088 ft | 552 kts | 126° |
| 2026-04-11 11:56 | 33.36744 | 32.40835 | 35088 ft | 552 kts | 126° |
| 2026-04-11 11:56 | 33.32355 | 32.48358 | 35089 ft | 551 kts | 126° |
| 2026-04-11 11:57 | 33.27958 | 32.55882 | 35089 ft | 551 kts | 126° |
| 2026-04-11 11:57 | 33.23567 | 32.63381 | 35093 ft | 551 kts | 126° |
| 2026-04-11 11:58 | 33.19167 | 32.70879 | 35088 ft | 551 kts | 126° |
| 2026-04-11 11:58 | 33.14764 | 32.78368 | 35086 ft | 551 kts | 126° |
| 2026-04-11 11:59 | 33.10361 | 32.85841 | 35086 ft | 551 kts | 126° |
| 2026-04-11 11:59 | 33.05957 | 32.93319 | 35087 ft | 550 kts | 126° |
| 2026-04-11 12:00 | 33.01568 | 33.00784 | 35089 ft | 549 kts | 126° |
| 2026-04-11 12:00 | 32.97926 | 33.06968 | 35089 ft | 549 kts | 126° |
| 2026-04-11 12:01 | 32.92807 | 33.15635 | 35086 ft | 549 kts | 126° |
| 2026-04-11 12:01 | 32.88408 | 33.23065 | 35086 ft | 548 kts | 126° |
| 2026-04-11 12:02 | 32.84729 | 33.29268 | 35086 ft | 547 kts | 126° |
| 2026-04-11 12:02 | 32.80337 | 33.36659 | 35086 ft | 547 kts | 126° |
| 2026-04-11 12:03 | 32.75938 | 33.44049 | 35080 ft | 548 kts | 126° |
| 2026-04-11 12:03 | 32.71534 | 33.51431 | 35083 ft | 548 kts | 126° |
| 2026-04-11 12:04 | 32.67127 | 33.58804 | 35086 ft | 548 kts | 126° |
| 2026-04-11 12:04 | 32.62748 | 33.66117 | 35086 ft | 548 kts | 126° |
| 2026-04-11 12:05 | 32.58333 | 33.73474 | 35082 ft | 547 kts | 126° |
| 2026-04-11 12:05 | 32.53921 | 33.80813 | 35083 ft | 546 kts | 126° |
| 2026-04-11 12:06 | 32.49512 | 33.88131 | 35080 ft | 546 kts | 126° |
| 2026-04-11 12:06 | 32.45092 | 33.95455 | 35060 ft | 546 kts | 126° |
| 2026-04-11 12:07 | 32.40688 | 34.02732 | 35082 ft | 541 kts | 127° |
| 2026-04-11 12:07 | 32.36630 | 34.10221 | 35080 ft | 540 kts | 118° |
| 2026-04-11 12:08 | 32.33174 | 34.18114 | 35075 ft | 541 kts | 116° |
| 2026-04-11 12:08 | 32.29811 | 34.26071 | 35071 ft | 539 kts | 116° |
| 2026-04-11 12:09 | 32.26468 | 34.33970 | 35070 ft | 537 kts | 117° |
| 2026-04-11 12:09 | 32.23116 | 34.41836 | 35070 ft | 536 kts | 117° |
| 2026-04-11 12:10 | 32.19750 | 34.49698 | 35061 ft | 536 kts | 117° |
| 2026-04-11 12:10 | 32.16697 | 34.57633 | 35065 ft | 533 kts | 107° |
| 2026-04-11 12:11 | 32.14980 | 34.66124 | 35061 ft | 532 kts | 101° |
| 2026-04-11 12:11 | 32.13567 | 34.74684 | 35059 ft | 532 kts | 100° |
| 2026-04-11 12:12 | 32.12189 | 34.83242 | 35074 ft | 530 kts | 100° |
| 2026-04-11 12:12 | 32.10565 | 34.91712 | 35078 ft | 530 kts | 107° |
| 2026-04-11 12:13 | 32.08282 | 34.99971 | 35074 ft | 530 kts | 109° |
| 2026-04-11 12:13 | 32.05902 | 35.08222 | 35074 ft | 532 kts | 109° |
| 2026-04-11 12:14 | 32.03515 | 35.16466 | 35070 ft | 533 kts | 109° |
| 2026-04-11 12:14 | 32.01115 | 35.24736 | 35066 ft | 533 kts | 110° |
| 2026-04-11 12:15 | 31.98703 | 35.32990 | 35071 ft | 531 kts | 110° |
| 2026-04-11 12:15 | 31.96332 | 35.41230 | 35069 ft | 531 kts | 110° |
| 2026-04-11 12:16 | 31.94000 | 35.49467 | 35061 ft | 531 kts | 107° |
| 2026-04-11 12:16 | 31.93351 | 35.53740 | 35081 ft | 532 kts | 95° |
| 2026-04-11 12:16 | 31.93016 | 35.58051 | 35079 ft | 532 kts | 98° |
| 2026-04-11 12:17 | 31.91131 | 35.66387 | 35083 ft | 528 kts | 114° |
| 2026-04-11 12:17 | 31.88148 | 35.74269 | 35113 ft | 527 kts | 118° |
| 2026-04-11 12:18 | 31.84952 | 35.82018 | 35110 ft | 526 kts | 119° |
| 2026-04-11 12:19 | 31.80177 | 35.93608 | 35102 ft | 525 kts | 119° |
| 2026-04-11 12:19 | 31.77011 | 36.01363 | 35094 ft | 525 kts | 118° |
| 2026-04-11 12:20 | 31.73854 | 36.09100 | 35102 ft | 525 kts | 118° |
| 2026-04-11 12:20 | 31.70690 | 36.16838 | 35097 ft | 525 kts | 119° |
| 2026-04-11 12:21 | 31.67524 | 36.24557 | 35096 ft | 525 kts | 119° |
| 2026-04-11 12:21 | 31.64347 | 36.32280 | 35086 ft | 523 kts | 119° |
| 2026-04-11 12:22 | 31.61182 | 36.39958 | 35074 ft | 522 kts | 119° |
| 2026-04-11 12:22 | 31.58020 | 36.47624 | 35068 ft | 522 kts | 119° |
| 2026-04-11 12:23 | 31.54849 | 36.55295 | 35058 ft | 521 kts | 120° |
| 2026-04-11 12:23 | 31.51685 | 36.62927 | 35058 ft | 520 kts | 120° |
| 2026-04-11 12:24 | 31.48540 | 36.70499 | 35053 ft | 520 kts | 120° |
| 2026-04-11 12:24 | 31.45350 | 36.78159 | 35043 ft | 519 kts | 120° |
| 2026-04-11 12:25 | 31.42204 | 36.85702 | 35041 ft | 518 kts | 120° |
| 2026-04-11 12:25 | 31.39038 | 36.93275 | 35035 ft | 518 kts | 120° |
| 2026-04-11 12:26 | 31.35868 | 37.00842 | 35024 ft | 517 kts | 120° |
| 2026-04-11 12:26 | 31.32693 | 37.08405 | 35022 ft | 517 kts | 120° |
| 2026-04-11 12:27 | 31.29519 | 37.15951 | 35020 ft | 517 kts | 120° |
| 2026-04-11 12:27 | 31.26388 | 37.23507 | 35006 ft | 519 kts | 117° |
| 2026-04-11 12:28 | 31.23837 | 37.31432 | 35021 ft | 522 kts | 114° |
| 2026-04-11 12:28 | 31.21433 | 37.39374 | 35022 ft | 522 kts | 113° |
| 2026-04-11 12:29 | 31.19029 | 37.47382 | 35026 ft | 523 kts | 113° |
| 2026-04-11 12:29 | 31.16611 | 37.55386 | 35026 ft | 523 kts | 114° |
| 2026-04-11 12:30 | 31.14184 | 37.63385 | 35031 ft | 523 kts | 114° |
| 2026-04-11 12:30 | 31.11752 | 37.71386 | 35031 ft | 523 kts | 114° |
| 2026-04-11 12:31 | 31.09317 | 37.79375 | 35034 ft | 523 kts | 114° |
| 2026-04-11 12:31 | 31.06878 | 37.87357 | 35035 ft | 522 kts | 114° |
| 2026-04-11 12:32 | 31.04433 | 37.95339 | 35040 ft | 522 kts | 114° |
| 2026-04-11 12:32 | 31.02002 | 38.03259 | 35039 ft | 522 kts | 114° |
| 2026-04-11 12:33 | 30.99547 | 38.11234 | 35040 ft | 522 kts | 114° |
| 2026-04-11 12:33 | 30.97088 | 38.19204 | 35021 ft | 522 kts | 114° |
| 2026-04-11 12:34 | 30.94622 | 38.27174 | 35039 ft | 523 kts | 114° |
| 2026-04-11 12:34 | 30.92148 | 38.35151 | 35041 ft | 523 kts | 114° |
| 2026-04-11 12:35 | 30.89669 | 38.43126 | 35041 ft | 523 kts | 114° |
| 2026-04-11 12:35 | 30.87187 | 38.51091 | 35043 ft | 523 kts | 114° |
| 2026-04-11 12:36 | 30.84696 | 38.59065 | 35044 ft | 523 kts | 114° |
| 2026-04-11 12:36 | 30.82203 | 38.67026 | 35033 ft | 523 kts | 115° |
| 2026-04-11 12:37 | 30.79715 | 38.74939 | 35042 ft | 523 kts | 115° |
| 2026-04-11 12:37 | 30.76707 | 38.82588 | 35041 ft | 520 kts | 121° |
| 2026-04-11 12:38 | 30.73496 | 38.90130 | 35047 ft | 519 kts | 122° |
| 2026-04-11 12:38 | 30.70259 | 38.97630 | 35047 ft | 519 kts | 122° |
| 2026-04-11 12:39 | 30.67018 | 39.05139 | 35048 ft | 520 kts | 122° |
| 2026-04-11 12:39 | 30.63784 | 39.12639 | 35026 ft | 520 kts | 122° |
| 2026-04-11 12:40 | 30.60543 | 39.20147 | 35044 ft | 520 kts | 122° |
| 2026-04-11 12:40 | 30.57298 | 39.27650 | 35048 ft | 521 kts | 122° |
| 2026-04-11 12:41 | 30.54046 | 39.35153 | 35044 ft | 521 kts | 122° |
| 2026-04-11 12:41 | 30.50788 | 39.42654 | 35044 ft | 521 kts | 122° |
| 2026-04-11 12:42 | 30.47517 | 39.50170 | 35048 ft | 521 kts | 122° |
| 2026-04-11 12:42 | 30.44251 | 39.57661 | 35048 ft | 521 kts | 122° |
| 2026-04-11 12:43 | 30.38748 | 39.68414 | 35048 ft | 514 kts | 131° |
| 2026-04-11 12:43 | 30.34516 | 39.75084 | 35043 ft | 513 kts | 133° |
| 2026-04-11 12:44 | 30.30224 | 39.81703 | 35032 ft | 513 kts | 133° |
| 2026-04-11 12:44 | 30.25936 | 39.88319 | 35042 ft | 514 kts | 133° |
| 2026-04-11 12:45 | 30.21650 | 39.94948 | 35051 ft | 515 kts | 133° |
| 2026-04-11 12:45 | 30.17355 | 40.01589 | 35050 ft | 516 kts | 133° |
| 2026-04-11 12:46 | 30.13088 | 40.08178 | 35041 ft | 516 kts | 133° |
| 2026-04-11 12:46 | 30.08780 | 40.14818 | 35044 ft | 516 kts | 133° |
| 2026-04-11 12:47 | 30.04472 | 40.21447 | 35047 ft | 516 kts | 134° |
| 2026-04-11 12:47 | 30.00158 | 40.28075 | 35047 ft | 516 kts | 134° |
| 2026-04-11 12:48 | 29.96572 | 40.33589 | 35037 ft | 517 kts | 134° |
| 2026-04-11 12:48 | 29.92250 | 40.40209 | 35036 ft | 517 kts | 134° |
| 2026-04-11 12:49 | 29.87920 | 40.46827 | 35037 ft | 517 kts | 134° |
| 2026-04-11 12:49 | 29.83593 | 40.53436 | 35036 ft | 517 kts | 134° |
| 2026-04-11 12:50 | 29.79259 | 40.60045 | 35034 ft | 517 kts | 134° |
| 2026-04-11 12:50 | 29.75135 | 40.66880 | 35031 ft | 522 kts | 129° |
| 2026-04-11 12:51 | 29.71282 | 40.73961 | 35020 ft | 524 kts | 129° |
| 2026-04-11 12:51 | 29.67447 | 40.81109 | 35029 ft | 525 kts | 129° |
| 2026-04-11 12:52 | 29.63608 | 40.88251 | 35029 ft | 525 kts | 129° |
| 2026-04-11 12:52 | 29.59757 | 40.95381 | 35024 ft | 526 kts | 129° |
| 2026-04-11 12:53 | 29.55887 | 41.02525 | 35020 ft | 526 kts | 129° |
| 2026-04-11 12:53 | 29.52017 | 41.09657 | 35020 ft | 526 kts | 129° |
| 2026-04-11 12:54 | 29.48141 | 41.16788 | 35020 ft | 527 kts | 129° |
| 2026-04-11 12:54 | 29.44278 | 41.23882 | 35019 ft | 527 kts | 130° |
| 2026-04-11 12:55 | 29.40369 | 41.31050 | 35011 ft | 527 kts | 130° |
| 2026-04-11 12:55 | 29.36498 | 41.38136 | 35006 ft | 527 kts | 130° |
| 2026-04-11 12:56 | 29.32601 | 41.45268 | 35000 ft | 528 kts | 130° |
| 2026-04-11 12:56 | 29.28696 | 41.52390 | 34996 ft | 528 kts | 130° |
| 2026-04-11 12:57 | 29.24791 | 41.59498 | 34992 ft | 528 kts | 130° |
| 2026-04-11 12:57 | 29.20881 | 41.66609 | 34990 ft | 528 kts | 130° |
| 2026-04-11 12:58 | 29.16961 | 41.73725 | 34982 ft | 528 kts | 130° |
| 2026-04-11 12:58 | 29.13048 | 41.80817 | 34965 ft | 528 kts | 130° |
| 2026-04-11 12:59 | 29.09124 | 41.87919 | 34971 ft | 527 kts | 130° |
| 2026-04-11 12:59 | 29.05206 | 41.94997 | 34964 ft | 527 kts | 130° |
| 2026-04-11 13:00 | 29.01284 | 42.02074 | 34946 ft | 527 kts | 130° |
| 2026-04-11 13:00 | 28.97382 | 42.09086 | 34958 ft | 526 kts | 130° |
| 2026-04-11 13:01 | 28.91498 | 42.19643 | 34947 ft | 525 kts | 130° |
| 2026-04-11 13:02 | 28.87577 | 42.26667 | 34936 ft | 525 kts | 130° |
| 2026-04-11 13:02 | 28.83655 | 42.33681 | 34932 ft | 524 kts | 130° |
| 2026-04-11 13:03 | 28.79726 | 42.40696 | 34898 ft | 524 kts | 130° |
| 2026-04-11 13:03 | 28.75800 | 42.47694 | 34920 ft | 524 kts | 130° |
| 2026-04-11 13:04 | 28.71868 | 42.54691 | 34918 ft | 523 kts | 130° |
| 2026-04-11 13:04 | 28.67938 | 42.61672 | 34891 ft | 523 kts | 130° |
| 2026-04-11 13:05 | 28.64009 | 42.68641 | 34913 ft | 523 kts | 130° |
| 2026-04-11 13:05 | 28.60406 | 42.75900 | 34911 ft | 529 kts | 124° |
| 2026-04-11 13:06 | 28.57072 | 42.83365 | 34907 ft | 529 kts | 124° |
| 2026-04-11 13:06 | 28.53694 | 42.90802 | 34904 ft | 529 kts | 125° |
| 2026-04-11 13:07 | 28.50255 | 42.98186 | 34899 ft | 528 kts | 125° |
| 2026-04-11 13:07 | 28.46789 | 43.05546 | 34901 ft | 528 kts | 125° |
| 2026-04-11 13:08 | 28.43347 | 43.12840 | 34895 ft | 527 kts | 125° |
| 2026-04-11 13:08 | 28.39882 | 43.20175 | 34893 ft | 527 kts | 125° |
| 2026-04-11 13:09 | 28.36415 | 43.27508 | 34888 ft | 527 kts | 125° |
| 2026-04-11 13:09 | 28.32945 | 43.34836 | 34890 ft | 526 kts | 125° |
| 2026-04-11 13:10 | 28.29480 | 43.42137 | 34886 ft | 526 kts | 126° |
| 2026-04-11 13:10 | 28.26008 | 43.49441 | 34883 ft | 525 kts | 126° |
| 2026-04-11 13:11 | 28.22543 | 43.56719 | 34883 ft | 525 kts | 126° |
| 2026-04-11 13:11 | 28.19070 | 43.64000 | 34864 ft | 525 kts | 126° |
| 2026-04-11 13:12 | 28.15569 | 43.71258 | 34873 ft | 524 kts | 126° |
| 2026-04-11 13:12 | 28.12059 | 43.78486 | 34867 ft | 524 kts | 126° |
| 2026-04-11 13:13 | 28.08550 | 43.85710 | 34863 ft | 524 kts | 126° |
| 2026-04-11 13:13 | 28.05042 | 43.92928 | 34861 ft | 523 kts | 126° |
| 2026-04-11 13:14 | 28.01531 | 44.00143 | 34855 ft | 523 kts | 126° |
| 2026-04-11 13:14 | 27.98047 | 44.07293 | 34860 ft | 522 kts | 126° |
| 2026-04-11 13:15 | 27.94538 | 44.14479 | 34851 ft | 522 kts | 126° |
| 2026-04-11 13:15 | 27.91056 | 44.21701 | 34862 ft | 523 kts | 126° |
| 2026-04-11 13:16 | 27.87601 | 44.28929 | 34850 ft | 523 kts | 126° |
| 2026-04-11 13:16 | 27.84137 | 44.36156 | 34852 ft | 522 kts | 126° |
| 2026-04-11 13:17 | 27.80658 | 44.43386 | 34834 ft | 522 kts | 126° |
| 2026-04-11 13:17 | 27.77182 | 44.50591 | 34849 ft | 523 kts | 126° |
| 2026-04-11 13:18 | 27.73703 | 44.57790 | 34850 ft | 523 kts | 126° |
| 2026-04-11 13:18 | 27.70239 | 44.64948 | 34849 ft | 523 kts | 127° |
| 2026-04-11 13:19 | 27.66747 | 44.72149 | 34851 ft | 524 kts | 127° |
| 2026-04-11 13:19 | 27.64066 | 44.79904 | 34857 ft | 540 kts | 110° |
| 2026-04-11 13:20 | 27.62409 | 44.88202 | 34859 ft | 543 kts | 108° |
| 2026-04-11 13:20 | 27.60916 | 44.96554 | 34854 ft | 544 kts | 108° |
| 2026-04-11 13:21 | 27.59415 | 45.04918 | 34866 ft | 545 kts | 108° |
| 2026-04-11 13:21 | 27.57878 | 45.13291 | 34862 ft | 546 kts | 108° |
| 2026-04-11 13:22 | 27.56321 | 45.21682 | 34846 ft | 546 kts | 108° |
| 2026-04-11 13:22 | 27.54766 | 45.30048 | 34871 ft | 545 kts | 108° |
| 2026-04-11 13:23 | 27.53195 | 45.38416 | 34873 ft | 547 kts | 109° |
| 2026-04-11 13:23 | 27.51617 | 45.46792 | 34888 ft | 544 kts | 108° |
| 2026-04-11 13:24 | 27.50049 | 45.55111 | 34886 ft | 543 kts | 108° |
| 2026-04-11 13:24 | 27.48486 | 45.63368 | 34880 ft | 541 kts | 108° |
| 2026-04-11 13:25 | 27.46919 | 45.71627 | 34886 ft | 538 kts | 109° |
| 2026-04-11 13:25 | 27.45347 | 45.79873 | 34894 ft | 539 kts | 109° |
| 2026-04-11 13:26 | 27.43772 | 45.88106 | 34900 ft | 537 kts | 109° |
| 2026-04-11 13:26 | 27.42194 | 45.96333 | 34900 ft | 537 kts | 109° |
| 2026-04-11 13:27 | 27.40613 | 46.04543 | 34903 ft | 538 kts | 109° |
| 2026-04-11 13:27 | 27.39022 | 46.12781 | 34905 ft | 538 kts | 109° |
| 2026-04-11 13:28 | 27.37425 | 46.21026 | 34910 ft | 539 kts | 109° |
| 2026-04-11 13:28 | 27.35820 | 46.29274 | 34911 ft | 541 kts | 109° |
| 2026-04-11 13:29 | 27.34268 | 46.37559 | 34924 ft | 542 kts | 108° |
| 2026-04-11 13:29 | 27.32837 | 46.45903 | 34910 ft | 545 kts | 108° |
| 2026-04-11 13:30 | 27.31402 | 46.54272 | 34924 ft | 545 kts | 108° |
| 2026-04-11 13:30 | 27.29940 | 46.62642 | 34931 ft | 546 kts | 108° |
| 2026-04-11 13:31 | 27.28459 | 46.71023 | 34930 ft | 547 kts | 108° |
| 2026-04-11 13:31 | 27.26972 | 46.79402 | 34934 ft | 547 kts | 108° |
| 2026-04-11 13:32 | 27.25480 | 46.87782 | 34935 ft | 546 kts | 109° |
| 2026-04-11 13:32 | 27.23986 | 46.96151 | 34935 ft | 546 kts | 109° |
| 2026-04-11 13:33 | 27.22498 | 47.04447 | 34942 ft | 546 kts | 109° |
| 2026-04-11 13:33 | 27.20992 | 47.12809 | 34944 ft | 547 kts | 109° |
| 2026-04-11 13:34 | 27.19478 | 47.21199 | 34946 ft | 547 kts | 109° |
| 2026-04-11 13:34 | 27.17960 | 47.29578 | 34952 ft | 547 kts | 109° |
| 2026-04-11 13:35 | 27.16437 | 47.37958 | 34952 ft | 547 kts | 109° |
| 2026-04-11 13:35 | 27.14910 | 47.46319 | 34956 ft | 547 kts | 109° |
| 2026-04-11 13:36 | 27.13380 | 47.54675 | 34962 ft | 546 kts | 109° |
| 2026-04-11 13:36 | 27.11848 | 47.62984 | 34951 ft | 546 kts | 109° |
| 2026-04-11 13:37 | 27.10296 | 47.71335 | 34969 ft | 547 kts | 109° |
| 2026-04-11 13:37 | 27.08992 | 47.78338 | 34974 ft | 547 kts | 109° |
| 2026-04-11 13:38 | 27.07442 | 47.86639 | 34972 ft | 547 kts | 109° |
| 2026-04-11 13:38 | 27.05880 | 47.94980 | 34976 ft | 547 kts | 109° |
| 2026-04-11 13:39 | 27.04215 | 48.03283 | 34956 ft | 544 kts | 112° |
| 2026-04-11 13:39 | 27.02337 | 48.11494 | 34976 ft | 544 kts | 112° |
| 2026-04-11 13:40 | 27.00449 | 48.19714 | 34982 ft | 544 kts | 112° |
| 2026-04-11 13:40 | 26.98594 | 48.27934 | 34974 ft | 545 kts | 112° |
| 2026-04-11 13:41 | 26.96742 | 48.36196 | 34973 ft | 546 kts | 112° |
| 2026-04-11 13:41 | 26.94891 | 48.44445 | 34967 ft | 546 kts | 112° |
| 2026-04-11 13:42 | 26.93027 | 48.52716 | 34975 ft | 548 kts | 112° |
| 2026-04-11 13:42 | 26.91159 | 48.60983 | 34971 ft | 548 kts | 112° |
| 2026-04-11 13:43 | 26.89282 | 48.69265 | 34971 ft | 549 kts | 112° |
| 2026-04-11 13:43 | 26.87415 | 48.77571 | 34968 ft | 552 kts | 111° |
| 2026-04-11 13:44 | 26.85862 | 48.86012 | 34972 ft | 555 kts | 108° |
| 2026-04-11 13:44 | 26.84413 | 48.94512 | 34968 ft | 555 kts | 108° |
| 2026-04-11 13:45 | 26.82920 | 49.02977 | 34968 ft | 554 kts | 109° |
| 2026-04-11 13:45 | 26.81384 | 49.11421 | 34972 ft | 554 kts | 109° |
| 2026-04-11 13:46 | 26.79829 | 49.19873 | 34968 ft | 555 kts | 109° |
| 2026-04-11 13:46 | 26.78267 | 49.28342 | 34967 ft | 555 kts | 109° |
| 2026-04-11 13:47 | 26.76700 | 49.36725 | 34973 ft | 554 kts | 111° |
| 2026-04-11 13:47 | 26.74465 | 49.44976 | 34974 ft | 549 kts | 116° |
| 2026-04-11 13:48 | 26.72075 | 49.53015 | 34974 ft | 548 kts | 117° |
| 2026-04-11 13:48 | 26.69633 | 49.61095 | 34974 ft | 548 kts | 117° |
| 2026-04-11 13:49 | 26.67200 | 49.69180 | 34968 ft | 549 kts | 117° |
| 2026-04-11 13:49 | 26.64767 | 49.77282 | 34967 ft | 549 kts | 117° |
| 2026-04-11 13:50 | 26.62335 | 49.85369 | 34968 ft | 549 kts | 117° |
| 2026-04-11 13:50 | 26.59904 | 49.93453 | 34971 ft | 549 kts | 117° |
| 2026-04-11 13:51 | 26.57457 | 50.01529 | 34975 ft | 548 kts | 117° |
| 2026-04-11 13:51 | 26.55002 | 50.09584 | 34989 ft | 548 kts | 117° |
| 2026-04-11 13:52 | 26.52550 | 50.17637 | 34992 ft | 547 kts | 117° |
| 2026-04-11 13:52 | 26.50098 | 50.25685 | 34992 ft | 547 kts | 117° |
| 2026-04-11 13:53 | 26.47658 | 50.33685 | 35000 ft | 547 kts | 117° |
| 2026-04-11 13:53 | 26.45228 | 50.41727 | 35002 ft | 548 kts | 116° |
| 2026-04-11 13:54 | 26.42960 | 50.49852 | 35013 ft | 549 kts | 115° |
| 2026-04-11 13:54 | 26.40722 | 50.57999 | 35019 ft | 549 kts | 115° |
| 2026-04-11 13:55 | 26.38458 | 50.66124 | 34988 ft | 548 kts | 115° |
| 2026-04-11 13:55 | 26.36155 | 50.74232 | 34997 ft | 548 kts | 115° |
| 2026-04-11 13:56 | 26.33847 | 50.82327 | 35004 ft | 548 kts | 116° |
| 2026-04-11 13:56 | 26.31527 | 50.90423 | 35009 ft | 548 kts | 116° |
| 2026-04-11 13:57 | 26.28558 | 50.98105 | 35017 ft | 533 kts | 127° |
| 2026-04-11 13:57 | 26.25037 | 51.05293 | 35023 ft | 531 kts | 129° |
| 2026-04-11 13:58 | 26.21401 | 51.12465 | 35019 ft | 530 kts | 129° |
| 2026-04-11 13:58 | 26.17781 | 51.19597 | 35023 ft | 528 kts | 129° |
| 2026-04-11 13:59 | 26.14175 | 51.26726 | 35023 ft | 528 kts | 129° |
| 2026-04-11 13:59 | 26.10577 | 51.33850 | 35029 ft | 528 kts | 129° |
| 2026-04-11 14:00 | 26.06983 | 51.40967 | 35014 ft | 526 kts | 129° |
| 2026-04-11 14:00 | 26.01621 | 51.51550 | 35021 ft | 523 kts | 129° |
| 2026-04-11 14:01 | 25.98048 | 51.58583 | 35023 ft | 523 kts | 129° |
| 2026-04-11 14:01 | 25.94469 | 51.65618 | 35027 ft | 522 kts | 129° |
| 2026-04-11 14:02 | 25.90902 | 51.72593 | 35035 ft | 522 kts | 129° |
| 2026-04-11 14:02 | 25.87390 | 51.79660 | 35026 ft | 524 kts | 127° |
| 2026-04-11 14:03 | 25.83927 | 51.86801 | 35029 ft | 525 kts | 127° |
| 2026-04-11 14:03 | 25.80668 | 51.94047 | 35030 ft | 530 kts | 123° |
| 2026-04-11 14:04 | 25.77622 | 52.01560 | 35021 ft | 531 kts | 122° |
| 2026-04-11 14:04 | 25.74576 | 52.09008 | 35032 ft | 531 kts | 123° |
| 2026-04-11 14:05 | 25.71462 | 52.16446 | 35035 ft | 531 kts | 123° |
| 2026-04-11 14:05 | 25.68341 | 52.23824 | 35034 ft | 531 kts | 123° |
| 2026-04-11 14:06 | 25.65205 | 52.31219 | 35032 ft | 531 kts | 124° |
| 2026-04-11 14:06 | 25.62056 | 52.38638 | 35034 ft | 533 kts | 124° |
| 2026-04-11 14:07 | 25.58727 | 52.45830 | 35034 ft | 527 kts | 128° |
| 2026-04-11 14:07 | 25.55030 | 52.52906 | 35023 ft | 525 kts | 129° |
| 2026-04-11 14:08 | 25.51379 | 52.59912 | 35035 ft | 525 kts | 128° |
| 2026-04-11 14:08 | 25.47776 | 52.66962 | 35033 ft | 527 kts | 128° |
| 2026-04-11 14:09 | 25.44198 | 52.74013 | 35032 ft | 528 kts | 128° |
| 2026-04-11 14:09 | 25.40444 | 52.80984 | 35030 ft | 523 kts | 130° |
| 2026-04-11 14:10 | 25.36617 | 52.87776 | 35036 ft | 519 kts | 131° |
| 2026-04-11 14:10 | 25.32784 | 52.94555 | 35024 ft | 520 kts | 130° |
| 2026-04-11 14:11 | 25.29474 | 53.01802 | 35030 ft | 533 kts | 123° |
| 2026-04-11 14:11 | 25.26395 | 53.09281 | 35034 ft | 535 kts | 122° |
| 2026-04-11 14:12 | 25.23347 | 53.16795 | 35037 ft | 536 kts | 122° |
| 2026-04-11 14:12 | 25.20286 | 53.24293 | 35037 ft | 535 kts | 122° |
| 2026-04-11 14:13 | 25.16826 | 53.31469 | 35037 ft | 520 kts | 136° |
| 2026-04-11 14:13 | 25.12401 | 53.37724 | 35039 ft | 517 kts | 139° |
| 2026-04-11 14:14 | 25.07814 | 53.43825 | 35043 ft | 516 kts | 140° |
| 2026-04-11 14:14 | 25.03243 | 53.49864 | 35042 ft | 517 kts | 140° |
| 2026-04-11 14:15 | 24.98801 | 53.56128 | 35041 ft | 526 kts | 130° |
| 2026-04-11 14:15 | 24.97062 | 53.59725 | 35046 ft | 538 kts | 121° |
| 2026-04-11 14:15 | 24.95767 | 53.63629 | 35041 ft | 546 kts | 115° |
| 2026-04-11 14:16 | 24.93532 | 53.71692 | 35045 ft | 551 kts | 113° |
| 2026-04-11 14:16 | 24.91411 | 53.79815 | 35045 ft | 552 kts | 113° |
| 2026-04-11 14:17 | 24.89272 | 53.87945 | 35051 ft | 552 kts | 113° |
| 2026-04-11 14:17 | 24.87104 | 53.96056 | 35028 ft | 552 kts | 114° |
| 2026-04-11 14:18 | 24.84935 | 54.04123 | 35059 ft | 546 kts | 112° |
| 2026-04-11 14:18 | 24.82385 | 54.11898 | 35059 ft | 538 kts | 118° |
| 2026-04-11 14:19 | 24.79462 | 54.19474 | 35061 ft | 537 kts | 120° |
| 2026-04-11 14:19 | 24.76481 | 54.26947 | 35063 ft | 536 kts | 120° |
| 2026-04-11 14:20 | 24.73438 | 54.34417 | 35067 ft | 536 kts | 120° |
| 2026-04-11 14:20 | 24.70423 | 54.41909 | 35068 ft | 537 kts | 117° |
| 2026-04-11 14:21 | 24.67325 | 54.49364 | 35074 ft | 535 kts | 122° |
| 2026-04-11 14:21 | 24.63647 | 54.56483 | 35179 ft | 532 kts | 125° |
| 2026-04-11 14:22 | 24.61748 | 54.59956 | 35509 ft | 529 kts | 127° |
| 2026-04-11 14:22 | 24.59820 | 54.63399 | 35742 ft | 529 kts | 127° |
| 2026-04-11 14:22 | 24.57866 | 54.66831 | 35936 ft | 531 kts | 128° |
| 2026-04-11 14:22 | 24.55898 | 54.70277 | 36137 ft | 532 kts | 128° |
| 2026-04-11 14:23 | 24.51955 | 54.77192 | 36313 ft | 538 kts | 130° |
| 2026-04-11 14:23 | 24.49903 | 54.80652 | 36610 ft | 535 kts | 130° |
| 2026-04-11 14:23 | 24.47905 | 54.83996 | 36858 ft | 536 kts | 130° |
| 2026-04-11 14:24 | 24.46537 | 54.86276 | 36979 ft | 536 kts | 131° |
| 2026-04-11 14:24 | 24.43769 | 54.90858 | 37080 ft | 540 kts | 131° |
| 2026-04-11 14:24 | 24.40297 | 54.96627 | 37080 ft | 542 kts | 131° |
| 2026-04-11 14:25 | 24.36184 | 55.03558 | 37077 ft | 542 kts | 131° |
| 2026-04-11 14:25 | 24.32068 | 55.10521 | 37081 ft | 543 kts | 131° |
| 2026-04-11 14:26 | 24.27956 | 55.17458 | 37080 ft | 543 kts | 131° |
| 2026-04-11 14:26 | 24.23851 | 55.24393 | 37077 ft | 543 kts | 131° |
| 2026-04-11 14:27 | 24.19735 | 55.31348 | 37041 ft | 543 kts | 131° |
| 2026-04-11 14:27 | 24.16208 | 55.38776 | 37074 ft | 554 kts | 121° |
| 2026-04-11 14:28 | 24.13177 | 55.46543 | 37076 ft | 555 kts | 119° |
| 2026-04-11 14:28 | 24.10239 | 55.54260 | 37086 ft | 555 kts | 118° |
| 2026-04-11 14:29 | 24.07299 | 55.62111 | 37079 ft | 556 kts | 119° |
| 2026-04-11 14:29 | 24.04169 | 55.69819 | 37081 ft | 551 kts | 124° |
| 2026-04-11 14:30 | 24.00536 | 55.77170 | 37078 ft | 548 kts | 126° |
| 2026-04-11 14:30 | 23.96878 | 55.84488 | 37082 ft | 548 kts | 126° |
| 2026-04-11 14:31 | 23.93303 | 55.91854 | 37088 ft | 549 kts | 125° |
| 2026-04-11 14:31 | 23.89761 | 55.99256 | 37089 ft | 549 kts | 124° |
| 2026-04-11 14:32 | 23.86228 | 56.06659 | 37073 ft | 549 kts | 124° |
| 2026-04-11 14:32 | 23.82694 | 56.14035 | 37112 ft | 547 kts | 124° |
| 2026-04-11 14:33 | 23.79154 | 56.21398 | 37107 ft | 547 kts | 124° |
| 2026-04-11 14:33 | 23.75609 | 56.28758 | 37106 ft | 547 kts | 124° |
| 2026-04-11 14:34 | 23.72061 | 56.36116 | 37095 ft | 548 kts | 125° |
| 2026-04-11 14:34 | 23.68536 | 56.43419 | 37085 ft | 548 kts | 124° |
| 2026-04-11 14:35 | 23.64990 | 56.50760 | 37094 ft | 546 kts | 124° |
| 2026-04-11 14:35 | 23.61456 | 56.58064 | 37113 ft | 545 kts | 124° |
| 2026-04-11 14:36 | 23.57907 | 56.65383 | 37114 ft | 546 kts | 124° |
| 2026-04-11 14:36 | 23.54351 | 56.72703 | 37109 ft | 546 kts | 125° |
| 2026-04-11 14:37 | 23.50799 | 56.80010 | 37086 ft | 546 kts | 124° |
| 2026-04-11 14:37 | 23.47242 | 56.87310 | 37122 ft | 545 kts | 124° |
| 2026-04-11 14:38 | 23.43682 | 56.94608 | 37121 ft | 545 kts | 124° |
| 2026-04-11 14:38 | 23.40125 | 57.01891 | 37130 ft | 545 kts | 124° |
| 2026-04-11 14:39 | 23.36570 | 57.09179 | 37136 ft | 546 kts | 123° |
| 2026-04-11 14:39 | 23.33193 | 57.16595 | 37157 ft | 548 kts | 122° |
| 2026-04-11 14:40 | 23.29868 | 57.24080 | 37140 ft | 548 kts | 122° |
| 2026-04-11 14:40 | 23.26520 | 57.31511 | 37157 ft | 547 kts | 122° |
| 2026-04-11 14:41 | 23.23180 | 57.38870 | 37154 ft | 546 kts | 122° |
| 2026-04-11 14:41 | 23.19804 | 57.46277 | 37149 ft | 546 kts | 122° |
| 2026-04-11 14:42 | 23.16420 | 57.53690 | 37147 ft | 548 kts | 122° |
| 2026-04-11 14:43 | 23.11357 | 57.64771 | 37128 ft | 545 kts | 122° |
| 2026-04-11 14:43 | 23.07985 | 57.72138 | 37120 ft | 543 kts | 122° |
| 2026-04-11 14:44 | 23.04627 | 57.79458 | 37106 ft | 542 kts | 122° |
| 2026-04-11 14:44 | 23.01258 | 57.86792 | 37095 ft | 542 kts | 122° |
| 2026-04-11 14:45 | 22.97883 | 57.94126 | 37086 ft | 542 kts | 122° |
| 2026-04-11 14:45 | 22.94504 | 58.01451 | 37081 ft | 543 kts | 122° |
| 2026-04-11 14:46 | 22.91153 | 58.08710 | 37072 ft | 542 kts | 122° |
| 2026-04-11 14:46 | 22.87763 | 58.16042 | 37073 ft | 542 kts | 122° |
| 2026-04-11 14:47 | 22.84384 | 58.23341 | 37064 ft | 541 kts | 122° |
| 2026-04-11 14:47 | 22.81010 | 58.30619 | 37065 ft | 540 kts | 122° |
| 2026-04-11 14:48 | 22.77632 | 58.37893 | 37038 ft | 540 kts | 122° |
| 2026-04-11 14:48 | 22.74258 | 58.45150 | 37058 ft | 539 kts | 122° |
| 2026-04-11 14:49 | 22.70883 | 58.52395 | 37058 ft | 539 kts | 122° |
| 2026-04-11 14:49 | 22.64455 | 58.62050 | 37050 ft | 515 kts | 147° |
| 2026-04-11 14:50 | 22.58676 | 58.66354 | 37049 ft | 505 kts | 155° |
| 2026-04-11 14:50 | 22.52679 | 58.70286 | 37050 ft | 506 kts | 155° |
| 2026-04-11 14:51 | 22.46633 | 58.74197 | 37048 ft | 507 kts | 155° |
| 2026-04-11 14:51 | 22.40604 | 58.78137 | 37052 ft | 508 kts | 155° |
| 2026-04-11 14:52 | 22.34541 | 58.82121 | 37046 ft | 508 kts | 155° |
| 2026-04-11 14:52 | 22.28505 | 58.86087 | 37056 ft | 509 kts | 155° |
| 2026-04-11 14:53 | 22.22451 | 58.90062 | 37050 ft | 509 kts | 155° |
| 2026-04-11 14:53 | 22.16446 | 58.94005 | 37051 ft | 509 kts | 155° |
| 2026-04-11 14:54 | 22.10342 | 58.97997 | 37047 ft | 509 kts | 155° |
| 2026-04-11 14:54 | 22.04276 | 59.01961 | 37048 ft | 509 kts | 155° |
| 2026-04-11 14:55 | 21.98221 | 59.05916 | 37047 ft | 509 kts | 155° |
| 2026-04-11 14:55 | 21.92244 | 59.09817 | 37047 ft | 509 kts | 155° |
| 2026-04-11 14:56 | 21.86117 | 59.13813 | 37048 ft | 509 kts | 155° |
| 2026-04-11 14:56 | 21.80099 | 59.17733 | 37044 ft | 508 kts | 154° |
| 2026-04-11 14:57 | 21.74061 | 59.21663 | 37045 ft | 507 kts | 154° |
| 2026-04-11 14:57 | 21.68031 | 59.25583 | 37041 ft | 506 kts | 154° |
| 2026-04-11 14:58 | 21.62004 | 59.29496 | 37038 ft | 506 kts | 154° |
| 2026-04-11 14:58 | 21.55977 | 59.33411 | 37040 ft | 506 kts | 154° |
| 2026-04-11 14:59 | 21.49969 | 59.37309 | 37035 ft | 503 kts | 154° |
| 2026-04-11 14:59 | 21.43990 | 59.41183 | 37037 ft | 502 kts | 154° |
| 2026-04-11 15:00 | 21.38000 | 59.45058 | 37035 ft | 502 kts | 154° |
| 2026-04-11 15:00 | 21.32016 | 59.48928 | 37023 ft | 502 kts | 154° |
| 2026-04-11 15:01 | 21.26014 | 59.52807 | 37033 ft | 501 kts | 154° |
| 2026-04-11 15:01 | 21.20071 | 59.56640 | 37029 ft | 501 kts | 154° |
| 2026-04-11 15:02 | 21.14092 | 59.60495 | 37028 ft | 501 kts | 154° |
| 2026-04-11 15:02 | 21.08120 | 59.64341 | 37031 ft | 500 kts | 154° |
| 2026-04-11 15:03 | 21.02152 | 59.68181 | 37032 ft | 500 kts | 153° |
| 2026-04-11 15:03 | 20.96234 | 59.71993 | 37032 ft | 500 kts | 153° |
| 2026-04-11 15:04 | 20.90268 | 59.75819 | 37029 ft | 500 kts | 153° |
| 2026-04-11 15:04 | 20.84307 | 59.79635 | 37029 ft | 500 kts | 153° |
| 2026-04-11 15:05 | 20.78342 | 59.83453 | 37026 ft | 500 kts | 153° |
| 2026-04-11 15:05 | 20.72380 | 59.87269 | 37030 ft | 500 kts | 153° |
| 2026-04-11 15:06 | 20.66404 | 59.91090 | 37029 ft | 500 kts | 153° |
| 2026-04-11 15:06 | 20.60434 | 59.94903 | 37029 ft | 500 kts | 153° |
| 2026-04-11 15:07 | 20.54463 | 59.98714 | 37022 ft | 500 kts | 153° |
| 2026-04-11 15:07 | 20.48494 | 60.02520 | 37030 ft | 499 kts | 153° |
| 2026-04-11 15:08 | 20.42527 | 60.06320 | 37029 ft | 499 kts | 153° |
| 2026-04-11 15:08 | 20.36558 | 60.10120 | 37030 ft | 499 kts | 153° |
| 2026-04-11 15:09 | 20.30626 | 60.13891 | 37029 ft | 499 kts | 153° |
| 2026-04-11 15:09 | 20.24630 | 60.17700 | 37030 ft | 499 kts | 152° |
| 2026-04-11 15:10 | 20.18709 | 60.21459 | 37036 ft | 498 kts | 152° |
| 2026-04-11 15:10 | 20.12765 | 60.25228 | 37030 ft | 498 kts | 152° |
| 2026-04-11 15:11 | 20.06832 | 60.29011 | 37028 ft | 499 kts | 150° |
| 2026-04-11 15:11 | 20.01365 | 60.33613 | 37025 ft | 503 kts | 141° |
| 2026-04-11 15:12 | 19.97006 | 60.37715 | 37040 ft | 503 kts | 141° |
| 2026-04-11 15:12 | 19.91802 | 60.42696 | 37025 ft | 503 kts | 141° |
| 2026-04-11 15:13 | 19.86612 | 60.47652 | 37029 ft | 503 kts | 141° |
| 2026-04-11 15:13 | 19.81389 | 60.52618 | 37030 ft | 503 kts | 141° |
| 2026-04-11 15:14 | 19.76172 | 60.57565 | 37014 ft | 502 kts | 140° |
| 2026-04-11 15:14 | 19.70980 | 60.62484 | 37026 ft | 502 kts | 140° |
| 2026-04-11 15:15 | 19.65757 | 60.67428 | 37031 ft | 502 kts | 140° |
| 2026-04-11 15:15 | 19.60543 | 60.72359 | 37029 ft | 501 kts | 140° |
| 2026-04-11 15:16 | 19.55331 | 60.77282 | 37031 ft | 501 kts | 140° |
| 2026-04-11 15:16 | 19.50117 | 60.82204 | 37031 ft | 501 kts | 140° |
| 2026-04-11 15:17 | 19.44905 | 60.87119 | 37031 ft | 501 kts | 140° |
| 2026-04-11 15:17 | 19.39690 | 60.92034 | 37031 ft | 501 kts | 140° |
| 2026-04-11 15:18 | 19.34478 | 60.96940 | 37031 ft | 501 kts | 140° |
| 2026-04-11 15:18 | 19.29295 | 61.01816 | 37028 ft | 501 kts | 140° |
| 2026-04-11 15:19 | 19.24086 | 61.06711 | 37028 ft | 501 kts | 140° |
| 2026-04-11 15:19 | 19.18835 | 61.11643 | 37029 ft | 501 kts | 140° |
| 2026-04-11 15:20 | 19.13650 | 61.16507 | 37026 ft | 501 kts | 140° |
| 2026-04-11 15:20 | 19.08430 | 61.21400 | 37026 ft | 501 kts | 140° |
| 2026-04-11 15:21 | 19.03207 | 61.26292 | 37021 ft | 501 kts | 140° |
| 2026-04-11 15:21 | 18.97982 | 61.31181 | 37028 ft | 502 kts | 140° |
| 2026-04-11 15:22 | 18.92750 | 61.36072 | 37023 ft | 502 kts | 140° |
| 2026-04-11 15:22 | 18.87519 | 61.40957 | 37024 ft | 502 kts | 140° |
| 2026-04-11 15:23 | 18.82280 | 61.45847 | 37025 ft | 502 kts | 140° |
| 2026-04-11 15:23 | 18.77046 | 61.50727 | 37024 ft | 502 kts | 140° |
| 2026-04-11 15:24 | 18.71806 | 61.55609 | 37022 ft | 503 kts | 140° |
| 2026-04-11 15:24 | 18.66564 | 61.60488 | 37024 ft | 503 kts | 140° |
| 2026-04-11 15:25 | 18.61323 | 61.65362 | 37023 ft | 503 kts | 140° |
| 2026-04-11 15:25 | 18.56113 | 61.70205 | 37024 ft | 503 kts | 140° |
| 2026-04-11 15:26 | 18.50860 | 61.75082 | 37023 ft | 503 kts | 140° |
| 2026-04-11 15:26 | 18.45612 | 61.79950 | 37023 ft | 503 kts | 140° |
| 2026-04-11 15:27 | 18.40357 | 61.84820 | 37024 ft | 503 kts | 140° |
| 2026-04-11 15:27 | 18.35101 | 61.89688 | 37024 ft | 503 kts | 140° |
| 2026-04-11 15:28 | 18.29844 | 61.94553 | 37020 ft | 503 kts | 140° |
| 2026-04-11 15:28 | 18.24592 | 61.99409 | 37021 ft | 503 kts | 140° |
| 2026-04-11 15:29 | 18.19337 | 62.04263 | 37021 ft | 502 kts | 140° |
| 2026-04-11 15:29 | 18.14078 | 62.09117 | 37021 ft | 502 kts | 140° |
| 2026-04-11 15:30 | 18.08827 | 62.13960 | 37020 ft | 502 kts | 140° |
| 2026-04-11 15:30 | 18.03612 | 62.18765 | 37021 ft | 502 kts | 140° |
| 2026-04-11 15:31 | 17.98353 | 62.23607 | 37018 ft | 502 kts | 140° |
| 2026-04-11 15:31 | 17.93094 | 62.28445 | 37017 ft | 502 kts | 140° |
| 2026-04-11 15:32 | 17.87838 | 62.33277 | 37021 ft | 501 kts | 140° |
| 2026-04-11 15:32 | 17.82615 | 62.38074 | 37023 ft | 501 kts | 140° |
| 2026-04-11 15:33 | 17.77365 | 62.42891 | 37020 ft | 501 kts | 140° |
| 2026-04-11 15:33 | 17.72111 | 62.47709 | 37018 ft | 501 kts | 140° |
| 2026-04-11 15:34 | 17.66859 | 62.52521 | 37019 ft | 501 kts | 140° |
| 2026-04-11 15:34 | 17.61610 | 62.57326 | 37018 ft | 500 kts | 140° |
| 2026-04-11 15:35 | 17.56368 | 62.62122 | 37013 ft | 500 kts | 140° |
| 2026-04-11 15:35 | 17.51121 | 62.66918 | 37017 ft | 500 kts | 140° |
| 2026-04-11 15:36 | 17.45877 | 62.71707 | 37013 ft | 500 kts | 140° |
| 2026-04-11 15:36 | 17.40630 | 62.76495 | 37013 ft | 500 kts | 140° |
| 2026-04-11 15:37 | 17.35388 | 62.81275 | 37010 ft | 500 kts | 140° |
| 2026-04-11 15:37 | 17.30138 | 62.86058 | 37010 ft | 500 kts | 140° |
| 2026-04-11 15:38 | 17.24896 | 62.90831 | 37010 ft | 499 kts | 140° |
| 2026-04-11 15:38 | 17.19658 | 62.95596 | 37010 ft | 499 kts | 140° |
| 2026-04-11 15:39 | 17.14416 | 63.00360 | 37007 ft | 499 kts | 140° |
| 2026-04-11 15:39 | 17.09162 | 63.05133 | 37010 ft | 499 kts | 140° |
| 2026-04-11 15:40 | 17.03918 | 63.09892 | 37007 ft | 499 kts | 140° |
| 2026-04-11 15:40 | 16.98664 | 63.14633 | 37002 ft | 499 kts | 141° |
| 2026-04-11 15:41 | 16.93325 | 63.19262 | 37007 ft | 498 kts | 141° |
| 2026-04-11 15:41 | 16.87970 | 63.23860 | 37007 ft | 498 kts | 141° |
| 2026-04-11 15:42 | 16.82626 | 63.28471 | 37004 ft | 498 kts | 141° |
| 2026-04-11 15:43 | 16.74653 | 63.35375 | 37007 ft | 498 kts | 141° |
| 2026-04-11 15:43 | 16.69320 | 63.39990 | 37004 ft | 498 kts | 141° |
| 2026-04-11 15:44 | 16.63973 | 63.44613 | 37002 ft | 498 kts | 141° |
| 2026-04-11 15:44 | 16.58640 | 63.49221 | 37001 ft | 498 kts | 141° |
| 2026-04-11 15:45 | 16.53301 | 63.53830 | 37002 ft | 499 kts | 141° |
| 2026-04-11 15:45 | 16.47947 | 63.58448 | 37001 ft | 499 kts | 141° |
| 2026-04-11 15:46 | 16.42625 | 63.63036 | 37001 ft | 499 kts | 141° |
| 2026-04-11 15:46 | 16.37285 | 63.67635 | 36999 ft | 499 kts | 141° |
| 2026-04-11 15:47 | 16.31942 | 63.72234 | 36997 ft | 499 kts | 141° |
| 2026-04-11 15:47 | 16.26585 | 63.76841 | 36999 ft | 499 kts | 141° |
| 2026-04-11 15:48 | 16.21226 | 63.81447 | 36999 ft | 499 kts | 141° |
| 2026-04-11 15:48 | 16.15871 | 63.86046 | 36999 ft | 499 kts | 141° |
| 2026-04-11 15:49 | 16.10511 | 63.90646 | 36998 ft | 499 kts | 141° |
| 2026-04-11 15:49 | 16.05149 | 63.95245 | 36998 ft | 500 kts | 141° |
| 2026-04-11 15:50 | 15.99776 | 63.99842 | 37000 ft | 500 kts | 140° |
| 2026-04-11 15:50 | 15.94409 | 64.04448 | 36998 ft | 500 kts | 140° |
| 2026-04-11 15:51 | 15.89039 | 64.09043 | 36998 ft | 499 kts | 140° |
| 2026-04-11 15:51 | 15.83710 | 64.13599 | 36996 ft | 499 kts | 141° |
| 2026-04-11 15:52 | 15.78350 | 64.18178 | 36994 ft | 499 kts | 140° |
| 2026-04-11 15:52 | 15.72989 | 64.22755 | 36993 ft | 498 kts | 140° |
| 2026-04-11 15:53 | 15.67638 | 64.27321 | 36993 ft | 497 kts | 140° |
| 2026-04-11 15:53 | 15.62286 | 64.31885 | 36993 ft | 497 kts | 140° |
| 2026-04-11 15:54 | 15.56946 | 64.36436 | 36990 ft | 497 kts | 140° |
| 2026-04-11 15:54 | 15.51607 | 64.40982 | 36991 ft | 496 kts | 140° |
| 2026-04-11 15:55 | 15.46274 | 64.45521 | 36990 ft | 495 kts | 140° |
| 2026-04-11 15:55 | 15.40963 | 64.50037 | 36990 ft | 494 kts | 140° |
| 2026-04-11 15:56 | 15.35636 | 64.54564 | 36993 ft | 494 kts | 140° |
| 2026-04-11 15:56 | 15.30323 | 64.59075 | 36991 ft | 494 kts | 140° |
| 2026-04-11 15:57 | 15.25914 | 64.62816 | 36991 ft | 495 kts | 140° |
| 2026-04-11 15:57 | 15.19711 | 64.68078 | 36991 ft | 494 kts | 140° |
| 2026-04-11 15:58 | 15.14391 | 64.72588 | 36991 ft | 494 kts | 140° |
| 2026-04-11 15:58 | 15.09936 | 64.76357 | 36990 ft | 494 kts | 140° |
| 2026-04-11 15:59 | 15.04642 | 64.80833 | 36991 ft | 494 kts | 140° |
| 2026-04-11 15:59 | 14.99319 | 64.85340 | 36990 ft | 494 kts | 140° |
| 2026-04-11 16:00 | 14.94007 | 64.89832 | 36991 ft | 494 kts | 140° |
| 2026-04-11 16:00 | 14.88686 | 64.94329 | 36994 ft | 493 kts | 140° |
| 2026-04-11 16:01 | 14.83370 | 64.98812 | 36988 ft | 493 kts | 140° |
| 2026-04-11 16:01 | 14.78091 | 65.03266 | 36987 ft | 492 kts | 140° |
| 2026-04-11 16:02 | 14.72793 | 65.07735 | 36989 ft | 491 kts | 140° |
| 2026-04-11 16:02 | 14.67501 | 65.12194 | 36989 ft | 490 kts | 140° |
| 2026-04-11 16:03 | 14.62218 | 65.16643 | 36987 ft | 491 kts | 140° |
| 2026-04-11 16:03 | 14.56928 | 65.21099 | 36986 ft | 492 kts | 140° |
| 2026-04-11 16:04 | 14.51609 | 65.25576 | 36986 ft | 491 kts | 140° |
| 2026-04-11 16:04 | 14.46338 | 65.30001 | 36987 ft | 490 kts | 141° |
| 2026-04-11 16:05 | 14.41046 | 65.34436 | 36989 ft | 490 kts | 140° |
| 2026-04-11 16:05 | 14.35760 | 65.38866 | 36988 ft | 490 kts | 140° |
| 2026-04-11 16:06 | 14.27792 | 65.45511 | 36984 ft | 490 kts | 141° |
| 2026-04-11 16:06 | 14.22473 | 65.49946 | 36988 ft | 490 kts | 141° |
| 2026-04-11 16:07 | 14.17181 | 65.54370 | 36988 ft | 490 kts | 141° |
| 2026-04-11 16:07 | 14.11894 | 65.58794 | 36982 ft | 490 kts | 141° |
| 2026-04-11 16:08 | 14.06618 | 65.63206 | 36979 ft | 492 kts | 140° |
| 2026-04-11 16:08 | 14.01312 | 65.67641 | 36980 ft | 491 kts | 140° |
| 2026-04-11 16:09 | 13.96032 | 65.72048 | 36982 ft | 489 kts | 141° |
| 2026-04-11 16:09 | 13.90712 | 65.76485 | 36983 ft | 490 kts | 141° |
| 2026-04-11 16:10 | 13.85419 | 65.80899 | 36982 ft | 491 kts | 140° |
| 2026-04-11 16:10 | 13.80116 | 65.85319 | 36982 ft | 491 kts | 141° |
| 2026-04-11 16:11 | 13.74823 | 65.89727 | 36983 ft | 490 kts | 141° |
| 2026-04-11 16:11 | 13.69502 | 65.94157 | 36986 ft | 489 kts | 141° |
| 2026-04-11 16:12 | 13.64209 | 65.98554 | 36982 ft | 489 kts | 140° |
| 2026-04-11 16:12 | 13.58908 | 66.02964 | 36983 ft | 491 kts | 140° |
| 2026-04-11 16:13 | 13.53613 | 66.07367 | 36981 ft | 490 kts | 140° |
| 2026-04-11 16:13 | 13.48309 | 66.11772 | 36982 ft | 489 kts | 140° |
| 2026-04-11 16:14 | 13.43010 | 66.16170 | 36983 ft | 489 kts | 140° |
| 2026-04-11 16:14 | 13.37719 | 66.20558 | 36979 ft | 489 kts | 140° |
| 2026-04-11 16:15 | 13.32419 | 66.24952 | 36983 ft | 491 kts | 140° |
| 2026-04-11 16:15 | 13.27105 | 66.29350 | 36979 ft | 490 kts | 140° |
| 2026-04-11 16:16 | 13.21836 | 66.33708 | 36981 ft | 489 kts | 140° |
| 2026-04-11 16:16 | 13.16543 | 66.38094 | 36983 ft | 489 kts | 140° |
| 2026-04-11 16:17 | 13.11244 | 66.42480 | 36980 ft | 489 kts | 140° |
| 2026-04-11 16:17 | 13.05934 | 66.46870 | 36979 ft | 491 kts | 140° |
| 2026-04-11 16:18 | 13.00618 | 66.51262 | 36980 ft | 490 kts | 140° |
| 2026-04-11 16:18 | 12.95311 | 66.55643 | 36979 ft | 489 kts | 140° |
| 2026-04-11 16:19 | 12.90019 | 66.60010 | 36980 ft | 489 kts | 140° |
| 2026-04-11 16:19 | 12.84720 | 66.64380 | 36980 ft | 489 kts | 140° |
| 2026-04-11 16:20 | 12.79410 | 66.68757 | 36979 ft | 490 kts | 140° |
| 2026-04-11 16:20 | 12.74103 | 66.73129 | 36980 ft | 489 kts | 140° |
| 2026-04-11 16:21 | 12.68798 | 66.77497 | 36976 ft | 489 kts | 140° |
| 2026-04-11 16:21 | 12.63489 | 66.81866 | 36978 ft | 490 kts | 140° |
| 2026-04-11 16:22 | 12.58176 | 66.86236 | 36977 ft | 490 kts | 140° |
| 2026-04-11 16:22 | 12.52895 | 66.90576 | 36977 ft | 490 kts | 140° |
| 2026-04-11 16:23 | 12.47576 | 66.94946 | 36980 ft | 490 kts | 140° |
| 2026-04-11 16:23 | 12.42266 | 66.99306 | 36980 ft | 490 kts | 140° |
| 2026-04-11 16:24 | 12.36939 | 67.03678 | 36973 ft | 490 kts | 140° |
| 2026-04-11 16:24 | 12.31616 | 67.08044 | 36974 ft | 490 kts | 140° |
| 2026-04-11 16:25 | 12.26292 | 67.12408 | 36977 ft | 490 kts | 140° |
| 2026-04-11 16:25 | 12.20969 | 67.16770 | 36977 ft | 490 kts | 140° |
| 2026-04-11 16:26 | 12.15644 | 67.21130 | 36973 ft | 490 kts | 140° |
| 2026-04-11 16:26 | 12.10322 | 67.25483 | 36973 ft | 490 kts | 141° |
| 2026-04-11 16:27 | 12.05034 | 67.29806 | 36972 ft | 489 kts | 140° |
| 2026-04-11 16:27 | 11.99687 | 67.34181 | 36971 ft | 489 kts | 140° |
| 2026-04-11 16:28 | 11.94403 | 67.38503 | 36971 ft | 489 kts | 140° |
| 2026-04-11 16:28 | 11.89088 | 67.42848 | 36971 ft | 489 kts | 140° |
| 2026-04-11 16:29 | 11.83773 | 67.47186 | 36971 ft | 489 kts | 140° |
| 2026-04-11 16:29 | 11.78458 | 67.51523 | 36971 ft | 489 kts | 140° |
| 2026-04-11 16:30 | 11.73150 | 67.55854 | 36971 ft | 489 kts | 140° |
| 2026-04-11 16:30 | 11.67830 | 67.60191 | 36970 ft | 488 kts | 140° |
| 2026-04-11 16:31 | 11.62533 | 67.64508 | 36970 ft | 488 kts | 140° |
| 2026-04-11 16:31 | 11.57275 | 67.68791 | 36969 ft | 487 kts | 140° |
| 2026-04-11 16:32 | 11.51978 | 67.73104 | 36972 ft | 488 kts | 140° |
| 2026-04-11 16:32 | 11.46683 | 67.77413 | 36969 ft | 487 kts | 140° |
| 2026-04-11 16:33 | 11.41373 | 67.81731 | 36969 ft | 488 kts | 140° |
| 2026-04-11 16:33 | 11.36065 | 67.86047 | 36972 ft | 487 kts | 140° |
| 2026-04-11 16:34 | 11.30766 | 67.90353 | 36969 ft | 486 kts | 140° |
| 2026-04-11 16:34 | 11.25489 | 67.94639 | 36969 ft | 486 kts | 140° |
| 2026-04-11 16:35 | 11.20194 | 67.98937 | 36966 ft | 486 kts | 141° |
| 2026-04-11 16:35 | 11.14895 | 68.03236 | 36963 ft | 487 kts | 141° |
| 2026-04-11 16:36 | 11.09634 | 68.07502 | 36963 ft | 486 kts | 141° |
| 2026-04-11 16:36 | 11.04345 | 68.11789 | 36966 ft | 486 kts | 140° |
| 2026-04-11 16:37 | 10.99057 | 68.16074 | 36963 ft | 485 kts | 141° |
| 2026-04-11 16:37 | 10.93774 | 68.20353 | 36953 ft | 486 kts | 140° |
| 2026-04-11 16:38 | 10.88475 | 68.24642 | 36964 ft | 489 kts | 141° |
| 2026-04-11 16:38 | 10.83137 | 68.28960 | 36961 ft | 490 kts | 141° |
| 2026-04-11 16:39 | 10.77815 | 68.33264 | 36964 ft | 489 kts | 141° |
| 2026-04-11 16:39 | 10.72488 | 68.37570 | 36963 ft | 488 kts | 141° |
| 2026-04-11 16:40 | 10.67171 | 68.41866 | 36963 ft | 488 kts | 141° |
| 2026-04-11 16:40 | 10.61843 | 68.46169 | 36961 ft | 489 kts | 141° |
| 2026-04-11 16:41 | 10.56546 | 68.50444 | 36967 ft | 490 kts | 141° |
| 2026-04-11 16:41 | 10.51168 | 68.54781 | 36966 ft | 490 kts | 140° |
| 2026-04-11 16:42 | 10.45858 | 68.59065 | 36964 ft | 490 kts | 140° |
| 2026-04-11 16:43 | 10.37860 | 68.65512 | 36968 ft | 489 kts | 140° |
| 2026-04-11 16:43 | 10.32518 | 68.69815 | 36965 ft | 490 kts | 140° |
| 2026-04-11 16:44 | 10.27168 | 68.74122 | 36967 ft | 491 kts | 141° |
| 2026-04-11 16:44 | 10.21821 | 68.78426 | 36967 ft | 491 kts | 140° |
| 2026-04-11 16:45 | 10.17371 | 68.82006 | 36963 ft | 490 kts | 141° |
| 2026-04-11 16:45 | 10.11120 | 68.87033 | 36962 ft | 490 kts | 140° |
| 2026-04-11 16:46 | 10.05820 | 68.91293 | 36963 ft | 489 kts | 140° |
| 2026-04-11 16:46 | 10.01337 | 68.94895 | 36966 ft | 491 kts | 140° |
| 2026-04-11 16:47 | 9.95985 | 68.99193 | 36966 ft | 491 kts | 141° |
| 2026-04-11 16:47 | 9.90656 | 69.03472 | 36964 ft | 492 kts | 141° |
| 2026-04-11 16:48 | 9.85300 | 69.07770 | 36963 ft | 490 kts | 140° |
| 2026-04-11 16:48 | 9.79950 | 69.12061 | 36962 ft | 489 kts | 140° |
| 2026-04-11 16:49 | 9.74614 | 69.16339 | 36966 ft | 489 kts | 140° |
| 2026-04-11 16:49 | 9.69277 | 69.20622 | 36966 ft | 490 kts | 140° |
| 2026-04-11 16:50 | 9.63931 | 69.24898 | 36964 ft | 489 kts | 141° |
| 2026-04-11 16:50 | 9.58561 | 69.29189 | 36966 ft | 491 kts | 140° |
| 2026-04-11 16:51 | 9.53214 | 69.33464 | 36964 ft | 489 kts | 141° |
| 2026-04-11 16:51 | 9.47865 | 69.37735 | 36962 ft | 490 kts | 140° |
| 2026-04-11 16:52 | 9.42510 | 69.42016 | 36962 ft | 489 kts | 140° |
| 2026-04-11 16:52 | 9.37202 | 69.46258 | 36964 ft | 490 kts | 140° |
| 2026-04-11 16:53 | 9.31847 | 69.50533 | 36964 ft | 490 kts | 140° |
| 2026-04-11 16:53 | 9.26501 | 69.54800 | 36963 ft | 490 kts | 141° |
| 2026-04-11 16:54 | 9.21132 | 69.59083 | 36965 ft | 490 kts | 140° |
| 2026-04-11 16:54 | 9.15768 | 69.63367 | 36965 ft | 491 kts | 140° |
| 2026-04-11 16:55 | 9.10401 | 69.67643 | 36960 ft | 491 kts | 140° |
| 2026-04-11 16:55 | 9.05040 | 69.71911 | 36961 ft | 491 kts | 140° |
| 2026-04-11 16:56 | 8.96992 | 69.78319 | 36961 ft | 491 kts | 140° |
| 2026-04-11 16:56 | 8.91613 | 69.82601 | 36960 ft | 491 kts | 140° |
| 2026-04-11 16:57 | 8.86244 | 69.86871 | 36956 ft | 491 kts | 140° |
| 2026-04-11 16:57 | 8.80863 | 69.91150 | 36961 ft | 492 kts | 140° |
| 2026-04-11 16:58 | 8.75488 | 69.95426 | 36957 ft | 492 kts | 140° |
| 2026-04-11 16:58 | 8.70110 | 69.99702 | 36958 ft | 492 kts | 140° |
| 2026-04-11 16:59 | 8.64727 | 70.03978 | 36958 ft | 492 kts | 140° |
| 2026-04-11 16:59 | 8.59346 | 70.08251 | 36958 ft | 492 kts | 140° |
| 2026-04-11 17:00 | 8.54001 | 70.12495 | 36961 ft | 492 kts | 140° |
| 2026-04-11 17:00 | 8.48611 | 70.16774 | 36961 ft | 492 kts | 140° |
| 2026-04-11 17:01 | 8.43219 | 70.21051 | 36957 ft | 493 kts | 140° |
| 2026-04-11 17:01 | 8.37832 | 70.25323 | 36958 ft | 492 kts | 140° |
| 2026-04-11 17:02 | 8.32447 | 70.29591 | 36958 ft | 492 kts | 140° |
| 2026-04-11 17:02 | 8.27056 | 70.33863 | 36958 ft | 492 kts | 140° |
| 2026-04-11 17:03 | 8.21668 | 70.38131 | 36958 ft | 492 kts | 141° |
| 2026-04-11 17:03 | 8.16312 | 70.42373 | 36957 ft | 493 kts | 140° |
| 2026-04-11 17:04 | 8.10921 | 70.46640 | 36958 ft | 493 kts | 140° |
| 2026-04-11 17:04 | 8.05519 | 70.50915 | 36958 ft | 493 kts | 140° |
| 2026-04-11 17:05 | 8.00125 | 70.55182 | 36955 ft | 493 kts | 141° |
| 2026-04-11 17:05 | 7.94729 | 70.59449 | 36955 ft | 493 kts | 141° |
| 2026-04-11 17:06 | 7.89332 | 70.63716 | 36957 ft | 493 kts | 141° |
| 2026-04-11 17:06 | 7.83927 | 70.67989 | 36958 ft | 494 kts | 141° |
| 2026-04-11 17:07 | 7.78514 | 70.72259 | 36955 ft | 494 kts | 141° |
| 2026-04-11 17:07 | 7.73102 | 70.76534 | 36952 ft | 494 kts | 141° |
| 2026-04-11 17:08 | 7.67692 | 70.80808 | 36952 ft | 494 kts | 141° |
| 2026-04-11 17:08 | 7.62273 | 70.85086 | 36952 ft | 494 kts | 141° |
| 2026-04-11 17:09 | 7.56892 | 70.89331 | 36952 ft | 494 kts | 141° |
| 2026-04-11 17:09 | 7.51475 | 70.93603 | 36953 ft | 494 kts | 141° |
| 2026-04-11 17:13 | 7.13501 | 71.23434 | 36952 ft | 495 kts | 141° |
| 2026-04-11 17:13 | 7.08066 | 71.27703 | 36952 ft | 496 kts | 141° |
| 2026-04-11 17:14 | 7.02630 | 71.31972 | 36949 ft | 496 kts | 141° |
| 2026-04-11 17:14 | 6.97186 | 71.36246 | 36949 ft | 496 kts | 141° |
| 2026-04-11 17:16 | 6.83627 | 71.46887 | 36949 ft | 496 kts | 141° |
| 2026-04-11 17:16 | 6.78174 | 71.51165 | 36949 ft | 497 kts | 141° |
| 2026-04-11 17:17 | 6.72713 | 71.55447 | 36956 ft | 498 kts | 141° |
| 2026-04-11 17:17 | 6.67255 | 71.59726 | 36949 ft | 497 kts | 141° |
| 2026-04-11 17:18 | 6.61802 | 71.64000 | 36954 ft | 497 kts | 141° |
| 2026-04-11 17:18 | 6.56339 | 71.68280 | 36955 ft | 497 kts | 141° |
| 2026-04-11 17:19 | 6.50884 | 71.72553 | 36953 ft | 497 kts | 141° |
| 2026-04-11 17:19 | 6.45424 | 71.76829 | 36953 ft | 498 kts | 141° |
| 2026-04-11 17:20 | 6.39957 | 71.81108 | 36955 ft | 499 kts | 141° |
| 2026-04-11 17:20 | 6.34196 | 71.84992 | 36955 ft | 500 kts | 150° |
| 2026-04-11 17:21 | 6.28115 | 71.88384 | 36952 ft | 500 kts | 150° |
| 2026-04-11 17:21 | 6.22029 | 71.91778 | 36952 ft | 500 kts | 150° |
| 2026-04-11 17:22 | 6.15955 | 71.95171 | 36953 ft | 500 kts | 150° |
| 2026-04-11 17:22 | 6.09914 | 71.98547 | 36955 ft | 500 kts | 150° |
| 2026-04-11 17:23 | 6.03828 | 72.01949 | 36955 ft | 500 kts | 150° |
| 2026-04-11 17:23 | 5.97745 | 72.05347 | 36955 ft | 500 kts | 150° |
| 2026-04-11 17:24 | 5.91671 | 72.08739 | 36953 ft | 500 kts | 150° |
| 2026-04-11 17:24 | 5.85590 | 72.12137 | 36953 ft | 500 kts | 150° |
| 2026-04-11 17:25 | 5.79506 | 72.15531 | 36950 ft | 501 kts | 150° |
| 2026-04-11 17:25 | 5.73413 | 72.18926 | 36952 ft | 501 kts | 150° |
| 2026-04-11 17:26 | 5.67314 | 72.22326 | 36952 ft | 501 kts | 150° |
| 2026-04-11 17:26 | 5.61231 | 72.25716 | 36956 ft | 499 kts | 150° |
| 2026-04-11 17:27 | 5.55168 | 72.29103 | 36953 ft | 498 kts | 149° |
| 2026-04-11 17:27 | 5.49113 | 72.32477 | 36952 ft | 498 kts | 150° |
| 2026-04-11 17:28 | 5.43046 | 72.35849 | 36952 ft | 499 kts | 150° |
| 2026-04-11 17:28 | 5.40009 | 72.37540 | 36821 ft | 498 kts | 150° |
| 2026-04-11 17:28 | 5.36983 | 72.39241 | 36569 ft | 498 kts | 149° |
| 2026-04-11 17:28 | 5.33959 | 72.40943 | 36335 ft | 499 kts | 149° |
| 2026-04-11 17:29 | 5.30925 | 72.42641 | 36092 ft | 500 kts | 149° |
| 2026-04-11 17:29 | 5.27922 | 72.44319 | 35847 ft | 500 kts | 150° |
| 2026-04-11 17:29 | 5.24835 | 72.46040 | 35600 ft | 501 kts | 150° |
| 2026-04-11 17:29 | 5.21834 | 72.47712 | 35370 ft | 501 kts | 150° |
| 2026-04-11 17:30 | 5.18783 | 72.49411 | 35062 ft | 500 kts | 150° |
| 2026-04-11 17:30 | 5.15748 | 72.51101 | 34479 ft | 498 kts | 150° |
| 2026-04-11 17:30 | 5.12722 | 72.52784 | 33715 ft | 499 kts | 150° |
| 2026-04-11 17:30 | 5.09675 | 72.54478 | 32892 ft | 501 kts | 150° |
| 2026-04-11 17:31 | 5.06640 | 72.56165 | 32105 ft | 501 kts | 150° |
| 2026-04-11 17:31 | 5.03579 | 72.57865 | 31300 ft | 501 kts | 150° |
| 2026-04-11 17:31 | 5.00522 | 72.59561 | 30484 ft | 502 kts | 150° |
| 2026-04-11 17:31 | 4.97462 | 72.61258 | 29565 ft | 503 kts | 150° |
| 2026-04-11 17:32 | 4.94413 | 72.62949 | 28824 ft | 499 kts | 151° |
| 2026-04-11 17:32 | 4.92405 | 72.64064 | 28391 ft | 495 kts | 151° |
| 2026-04-11 17:32 | 4.89406 | 72.65731 | 27761 ft | 490 kts | 151° |
| 2026-04-11 17:32 | 4.86443 | 72.67378 | 27123 ft | 484 kts | 151° |
| 2026-04-11 17:33 | 4.83506 | 72.69010 | 26536 ft | 479 kts | 151° |
| 2026-04-11 17:33 | 4.80605 | 72.70622 | 25939 ft | 474 kts | 151° |
| 2026-04-11 17:33 | 4.77737 | 72.72215 | 25325 ft | 470 kts | 151° |
| 2026-04-11 17:33 | 4.74889 | 72.73797 | 24738 ft | 465 kts | 151° |
| 2026-04-11 17:34 | 4.72065 | 72.75366 | 24140 ft | 461 kts | 151° |
| 2026-04-11 17:34 | 4.69277 | 72.76911 | 23550 ft | 457 kts | 151° |
| 2026-04-11 17:34 | 4.66505 | 72.78450 | 22894 ft | 452 kts | 150° |
| 2026-04-11 17:34 | 4.63762 | 72.79973 | 22310 ft | 446 kts | 150° |
| 2026-04-11 17:35 | 4.61075 | 72.81466 | 21740 ft | 440 kts | 150° |
| 2026-04-11 17:35 | 4.58409 | 72.82948 | 21164 ft | 435 kts | 150° |
| 2026-04-11 17:35 | 4.55774 | 72.84409 | 20605 ft | 430 kts | 149° |
| 2026-04-11 17:35 | 4.53176 | 72.85857 | 20037 ft | 426 kts | 149° |
| 2026-04-11 17:36 | 4.50601 | 72.87286 | 19476 ft | 422 kts | 149° |
| 2026-04-11 17:36 | 4.48073 | 72.88688 | 18915 ft | 419 kts | 149° |
| 2026-04-11 17:36 | 4.45525 | 72.90099 | 18350 ft | 416 kts | 149° |
| 2026-04-11 17:36 | 4.43007 | 72.91497 | 17744 ft | 413 kts | 148° |
| 2026-04-11 17:37 | 4.40505 | 72.92888 | 17141 ft | 409 kts | 148° |
| 2026-04-11 17:37 | 4.38029 | 72.94257 | 16557 ft | 405 kts | 148° |
| 2026-04-11 17:37 | 4.35569 | 72.95624 | 15998 ft | 402 kts | 149° |
| 2026-04-11 17:37 | 4.33129 | 72.96979 | 15436 ft | 399 kts | 149° |
| 2026-04-11 17:38 | 4.30708 | 72.98323 | 14853 ft | 397 kts | 149° |
| 2026-04-11 17:38 | 4.28300 | 72.99658 | 14271 ft | 394 kts | 149° |
| 2026-04-11 17:38 | 4.25904 | 73.00988 | 13697 ft | 393 kts | 149° |
| 2026-04-11 17:38 | 4.23515 | 73.02311 | 13082 ft | 390 kts | 149° |
| 2026-04-11 17:39 | 4.21152 | 73.03621 | 12487 ft | 387 kts | 148° |
| 2026-04-11 17:39 | 4.18804 | 73.04921 | 11921 ft | 384 kts | 148° |
| 2026-04-11 17:39 | 4.16481 | 73.06208 | 11370 ft | 381 kts | 148° |
| 2026-04-11 17:39 | 4.14214 | 73.07462 | 11202 ft | 364 kts | 148° |
| 2026-04-11 17:40 | 4.12049 | 73.08663 | 11108 ft | 346 kts | 148° |
| 2026-04-11 17:40 | 4.09995 | 73.09804 | 10988 ft | 330 kts | 140° |
| 2026-04-11 17:40 | 4.08094 | 73.10993 | 10851 ft | 312 kts | 139° |
| 2026-04-11 17:40 | 4.06316 | 73.12092 | 10733 ft | 297 kts | 142° |
| 2026-04-11 17:41 | 4.04550 | 73.13089 | 10604 ft | 286 kts | 146° |
| 2026-04-11 17:41 | 4.02820 | 73.14013 | 10478 ft | 277 kts | 146° |
| 2026-04-11 17:41 | 4.01131 | 73.14921 | 10198 ft | 275 kts | 145° |
| 2026-04-11 17:41 | 3.99453 | 73.15834 | 9884 ft | 273 kts | 145° |
| 2026-04-11 17:42 | 3.97757 | 73.16773 | 9597 ft | 284 kts | 143° |
| 2026-04-11 17:42 | 3.96194 | 73.17958 | 9410 ft | 279 kts | 126° |
| 2026-04-11 17:42 | 3.95232 | 73.19604 | 8908 ft | 274 kts | 103° |
| 2026-04-11 17:43 | 3.95036 | 73.23378 | 8184 ft | 275 kts | 85° |
| 2026-04-11 17:43 | 3.95078 | 73.25297 | 7884 ft | 276 kts | 83° |
| 2026-04-11 17:43 | 3.95127 | 73.27213 | 7587 ft | 275 kts | 84° |
| 2026-04-11 17:43 | 3.95159 | 73.29136 | 7285 ft | 275 kts | 86° |
| 2026-04-11 17:44 | 3.95146 | 73.31049 | 6978 ft | 274 kts | 86° |
| 2026-04-11 17:44 | 3.95137 | 73.32955 | 6673 ft | 273 kts | 84° |
| 2026-04-11 17:44 | 3.95171 | 73.34859 | 6371 ft | 274 kts | 86° |
| 2026-04-11 17:44 | 3.95156 | 73.36760 | 6049 ft | 273 kts | 87° |
| 2026-04-11 17:45 | 3.95146 | 73.38655 | 5729 ft | 272 kts | 86° |
| 2026-04-11 17:45 | 3.95148 | 73.40549 | 5508 ft | 272 kts | 85° |
| 2026-04-11 17:45 | 3.95166 | 73.42441 | 5204 ft | 271 kts | 85° |
| 2026-04-11 17:45 | 3.95170 | 73.44333 | 4941 ft | 271 kts | 86° |
| 2026-04-11 17:46 | 3.95165 | 73.46219 | 4679 ft | 271 kts | 84° |
| 2026-04-11 17:46 | 3.95186 | 73.48086 | 4481 ft | 263 kts | 84° |
| 2026-04-11 17:46 | 3.95198 | 73.49872 | 4312 ft | 250 kts | 84° |
| 2026-04-11 17:46 | 3.95539 | 73.51490 | 4275 ft | 228 kts | 54° |
| 2026-04-11 17:47 | 3.96708 | 73.52407 | 4238 ft | 212 kts | 15° |
| 2026-04-11 17:47 | 3.98135 | 73.52800 | 4026 ft | 219 kts | 5° |
| 2026-04-11 17:47 | 3.99657 | 73.52926 | 3705 ft | 220 kts | 358° |
| 2026-04-11 17:47 | 4.01172 | 73.53001 | 3359 ft | 215 kts | 359° |
| 2026-04-11 17:48 | 4.04102 | 73.53055 | 2731 ft | 205 kts | 355° |
| 2026-04-11 17:48 | 4.05503 | 73.53054 | 2469 ft | 197 kts | 354° |
| 2026-04-11 17:48 | 4.06831 | 73.53065 | 2229 ft | 183 kts | 354° |
| 2026-04-11 17:49 | 4.09201 | 73.53083 | 1791 ft | 157 kts | 354° |
| 2026-04-11 17:49 | 4.11249 | 73.53089 | 1401 ft | 142 kts | 355° |
| 2026-04-11 17:50 | 4.12240 | 73.53093 | 1228 ft | 143 kts | 356° |
| 2026-04-11 17:50 | 4.13237 | 73.53093 | 1047 ft | 144 kts | 356° |
| 2026-04-11 17:50 | 4.14233 | 73.53079 | 876 ft | 143 kts | 354° |
| 2026-04-11 17:50 | 4.15220 | 73.52995 | 674 ft | 142 kts | 352° |
| 2026-04-11 17:51 | 4.16216 | 73.53046 | 456 ft | 144 kts | 358° |
| 2026-04-11 17:51 | 4.18183 | 73.53089 | 98 ft | 140 kts | 355° |
| 2026-04-11 17:51 | 4.19121 | 73.53082 | 21 ft | 126 kts | 354° |
| 2026-04-11 17:52 | 4.19848 | 73.53091 | 18 ft | 69 kts | 4° |
| 2026-04-11 17:52 | 4.20132 | 73.53101 | 18 ft | 37 kts | 358° |
| 2026-04-11 17:52 | 4.20353 | 73.53073 | 18 ft | 23 kts | 319° |
| 2026-04-11 17:52 | 4.20369 | 73.52961 | 21 ft | 17 kts | 257° |
| 2026-04-11 17:53 | 4.20355 | 73.52920 | 20 ft | 4 kts | 240° |
| 2026-04-11 17:53 | 4.20289 | 73.52890 | 18 ft | 0 kts | 188° |
| 2026-04-11 17:53 | 4.20288 | 73.52890 | 18 ft | 0 kts | 188° |
| 2026-04-11 17:54 | 4.20240 | 73.52889 | 18 ft | 8 kts | 176° |
| 2026-04-11 17:54 | 4.20174 | 73.52891 | 18 ft | 11 kts | 178° |
| 2026-04-11 17:55 | 4.20063 | 73.52896 | 18 ft | 21 kts | 178° |
| 2026-04-11 17:55 | 4.19902 | 73.52900 | 18 ft | 24 kts | 179° |
| 2026-04-11 17:55 | 4.19740 | 73.52905 | 20 ft | 13 kts | 177° |
| 2026-04-11 17:55 | 4.19725 | 73.52905 | 18 ft | 4 kts | 178° |
| 2026-04-11 17:56 | 4.19652 | 73.52906 | 18 ft | 15 kts | 179° |
| 2026-04-11 17:56 | 4.19524 | 73.52907 | 18 ft | 21 kts | 180° |
| 2026-04-11 17:56 | 4.19362 | 73.52908 | 18 ft | 25 kts | 177° |
| 2026-04-11 17:56 | 4.19192 | 73.52916 | 18 ft | 26 kts | 178° |
| 2026-04-11 17:57 | 4.19040 | 73.52918 | 18 ft | 22 kts | 180° |
| 2026-04-11 17:57 | 4.18888 | 73.52919 | 18 ft | 23 kts | 179° |
| 2026-04-11 17:57 | 4.18762 | 73.52921 | 18 ft | 14 kts | 179° |
| 2026-04-11 17:57 | 4.18754 | 73.52921 | 18 ft | 1 kts | 179° |
| 2026-04-11 17:58 | 4.18723 | 73.52916 | 18 ft | 8 kts | 195° |
| 2026-04-11 17:58 | 4.18678 | 73.52871 | 18 ft | 9 kts | 229° |
| 2026-04-11 17:58 | 4.18672 | 73.52862 | 18 ft | 1 kts | 241° |
| 2026-04-11 17:58 | 4.18674 | 73.52847 | 18 ft | 5 kts | 275° |
| 2026-04-11 17:59 | 4.18675 | 73.52830 | 18 ft | 2 kts | 271° |
| 2026-04-11 17:59 | 4.18674 | 73.52811 | 18 ft | 3 kts | 268° |
| 2026-04-11 17:59 | 4.18674 | 73.52809 | 18 ft | 0 kts | 268° |